Flight Track Log - Related Links

Times and Time Zones

All times are in EDT time to prevent confusion due to time zone crossing. See the JAL401 flight status page for this flight to view local times or setup timezone preferences in your user account.

Time Position Orientation Groundspeed Altitude Reporting Facility
EDT Latitude Longitude Course Direction KTS MPH feet Rate Location/Type
Fri 11:06:53 PM 35.7310 140.4000 150° Southeast 196 226 1,300  Level FlightAware ADS-B
Fri 11:07:23 PM 35.7070 140.4170 150° Southeast 201 231 2,400 2,291 Climbing FlightAware ADS-B
Fri 11:07:48 PM 35.6870 140.4310 150° Southeast 203 234 3,400 1,527 Climbing FlightAware ADS-B
Fri 11:08:18 PM 35.6620 140.4500 148° Southeast 243 280 3,800 1,300 Climbing FlightAware ADS-B
Fri 11:08:48 PM 35.6310 140.4720 150° Southeast 263 303 4,700 2,073 Climbing FlightAware ADS-B
Fri 11:09:13 PM 35.6030 140.4920 150° Southeast 271 312 5,700 2,400 Climbing FlightAware ADS-B
Fri 11:09:28 PM 35.5870 140.5030 151° Southeast 275 316 6,300 2,400 Climbing FlightAware ADS-B
Fri 11:09:53 PM 35.5580 140.5160 160° South 276 318 7,300 2,182 Climbing FlightAware ADS-B
Fri 11:10:23 PM 35.5270 140.5010 201° Southwest 271 312 8,300 2,133 Climbing FlightAware ADS-B
Fri 11:10:38 PM 35.5160 140.4760 242° Southwest 269 310 8,900 2,533 Climbing FlightAware ADS-B
Fri 11:11:08 PM 35.5250 140.4320 284° West 269 310 10,200 2,618 Climbing FlightAware ADS-B
Fri 11:11:33 PM 35.5490 140.4080 321° Northwest 275 316 11,300 1,569 Climbing FlightAware ADS-B
Fri 11:12:13 PM 35.5970 140.3780 333° Northwest 314 361 11,900 918 Climbing FlightAware ADS-B
Fri 11:12:58 PM 35.6590 140.3410 334° Northwest 354 407 12,600 706 Climbing FlightAware ADS-B
Fri 11:13:38 PM 35.7170 140.3050 333° Northwest 377 434 12,900 212 Climbing FlightAware ADS-B
Fri 11:14:23 PM 35.7890 140.2630 335° Northwest 378 435 12,900  Level FlightAware ADS-B
Fri 11:15:03 PM 35.8550 140.2380 343° North 377 434 12,900 75 Level FlightAware ADS-B
Fri 11:15:43 PM 35.9160 140.2160 344° North 377 434 13,000 71 Climbing FlightAware ADS-B
Fri 11:16:28 PM 35.9890 140.1910 345° North 379 436 13,000  Level FlightAware ADS-B
Fri 11:17:08 PM 36.0580 140.1520 335° Northwest 369 425 13,000  Level FlightAware ADS-B
Fri 11:17:53 PM 36.1080 140.0890 314° West 363 418 13,000 565 Level FlightAware ADS-B
Fri 11:18:33 PM 36.1570 140.0210 312° West 364 419 13,800 1,200 Climbing FlightAware ADS-B
Fri 11:19:18 PM 36.2080 139.9510 312° West 373 429 14,700 847 Climbing FlightAware ADS-B
Fri 11:19:58 PM 36.2540 139.8880 312° West 369 425 15,000 225 Climbing FlightAware ADS-B
Fri 11:20:38 PM 36.2960 139.8290 311° West 369 425 15,000 353 Level FlightAware ADS-B
Fri 11:21:23 PM 36.3530 139.7510 312° West 373 429 15,500 1,341 Climbing FlightAware ADS-B
Fri 11:22:03 PM 36.4070 139.6950 320° Northwest 387 445 16,900 2,118 Climbing FlightAware ADS-B
Fri 11:22:48 PM 36.4830 139.6650 342° North 404 465 18,500 2,047 Climbing FlightAware ADS-B
Fri 11:23:28 PM 36.5590 139.6380 344° North 416 479 19,800 1,840 Climbing FlightAware ADS-B
Fri 11:24:03 PM 36.6210 139.6150 343° North 422 486 20,800 1,835 Climbing FlightAware ADS-B
Fri 11:24:53 PM 36.7160 139.5800 344° North 432 497 22,400 1,875 Climbing FlightAware ADS-B
Fri 11:25:23 PM 36.7780 139.5570 343° North 435 501 23,300 1,694 Climbing FlightAware ADS-B
Fri 11:26:18 PM 36.8810 139.5190 344° North 442 509 24,800 1,516 Climbing FlightAware ADS-B
Fri 11:26:58 PM 36.9610 139.4890 343° North 452 520 25,700 1,425 Climbing FlightAware ADS-B
Fri 11:27:38 PM 37.0460 139.4580 344° North 461 531 26,700 1,320 Climbing FlightAware ADS-B
Fri 11:28:38 PM 37.1580 139.4030 339° North 457 526 27,900 1,260 Climbing FlightAware ADS-B
Fri 11:29:18 PM 37.2290 139.3440 327° Northwest 459 528 28,800 1,350 Climbing FlightAware ADS-B
Fri 11:29:58 PM 37.2990 139.2820 325° Northwest 463 533 29,700 1,553 Climbing FlightAware ADS-B
Fri 11:30:43 PM 37.3830 139.2080 325° Northwest 462 532 31,000 1,425 Climbing FlightAware ADS-B
Fri 11:31:18 PM 37.4380 139.1600 325° Northwest 462 532 31,600 750 Climbing FlightAware ADS-B
Fri 11:32:03 PM 37.5140 139.0920 325° Northwest 461 531 32,000 300 Climbing FlightAware ADS-B
Fri 11:32:38 PM 37.5800 139.0340 325° Northwest 463 533 32,000  Level FlightAware ADS-B
Fri 11:33:38 PM 37.6930 138.9330 325° Northwest 469 540 32,000  Level FlightAware ADS-B
Fri 11:34:28 PM 37.7850 138.8520 325° Northwest 460 529 32,000  Level FlightAware ADS-B
Fri 11:34:58 PM 37.8310 138.8110 325° Northwest 458 527 32,000  Level FlightAware ADS-B
Fri 11:35:48 PM 37.9230 138.7290 325° Northwest 457 526 32,000  Level FlightAware ADS-B
Fri 11:36:33 PM 38.0010 138.6590 325° Northwest 459 528 32,000  Level FlightAware ADS-B
Fri 11:37:13 PM 38.0650 138.6010 324° Northwest 458 527 32,000  Level FlightAware ADS-B
Fri 11:37:58 PM 38.1440 138.5290 324° Northwest 462 532 32,000  Level FlightAware ADS-B
Fri 11:38:38 PM 38.2160 138.4640 325° Northwest 461 531 32,000  Level FlightAware ADS-B
Fri 11:39:18 PM 38.2900 138.3980 325° Northwest 460 529 32,000  Level FlightAware ADS-B
Fri 11:40:03 PM 38.3730 138.3350 329° Northwest 461 531 32,000  Level FlightAware ADS-B
Fri 11:40:43 PM 38.4590 138.3190 352° North 468 539 32,000  Level FlightAware ADS-B
Fri 11:42:18 PM 38.6650 138.3170 360° North 475 547 32,000  Level FlightAware ADS-B
Fri 11:43:03 PM 38.7560 138.3170 360° North 475 547 32,000  Level FlightAware ADS-B
Fri 11:43:38 PM 38.8440 138.3150 359° North 478 550 32,000  Level FlightAware ADS-B
Fri 11:44:23 PM 38.9360 138.3130 359° North 470 541 32,000  Level FlightAware ADS-B
Fri 11:45:08 PM 39.0440 138.3120 360° North 464 534 32,000  Level FlightAware ADS-B
Fri 11:45:53 PM 39.1430 138.3100 359° North 463 533 32,000  Level FlightAware ADS-B
Fri 11:46:33 PM 39.2300 138.3090 359° North 464 534 32,000  Level FlightAware ADS-B
Fri 11:47:13 PM 39.3170 138.3080 359° North 464 534 32,000  Level FlightAware ADS-B
Fri 11:47:58 PM 39.4150 138.3070 360° North 470 541 32,000  Level FlightAware ADS-B
Fri 11:48:38 PM 39.5030 138.3050 359° North 470 541 32,000  Level FlightAware ADS-B
Fri 11:49:23 PM 39.6010 138.3040 360° North 463 533 32,000  Level FlightAware ADS-B
Fri 11:50:03 PM 39.6790 138.3030 359° North 469 540 32,000  Level FlightAware ADS-B
Fri 11:50:48 PM 39.7850 138.3020 360° North 466 536 32,000  Level FlightAware ADS-B
Fri 11:51:28 PM 39.8660 138.3010 359° North 465 535 32,000  Level FlightAware ADS-B
Fri 11:52:08 PM 39.9550 138.2990 359° North 464 534 32,000  Level FlightAware ADS-B
Fri 11:52:53 PM 40.0520 138.2980 360° North 452 520 32,000  Level FlightAware ADS-B
Fri 11:53:33 PM 40.1360 138.2970 359° North 451 519 32,000  Level FlightAware ADS-B
Fri 11:54:18 PM 40.2340 138.2950 359° North 449 517 32,000  Level FlightAware ADS-B
Fri 11:54:58 PM 40.3170 138.2940 359° North 447 514 32,000  Level FlightAware ADS-B
Fri 11:55:38 PM 40.4030 138.2930 359° North 454 522 32,000  Level FlightAware ADS-B
Fri 11:56:23 PM 40.4960 138.2920 360° North 453 521 32,000  Level FlightAware ADS-B
Fri 11:57:03 PM 40.5790 138.2910 359° North 451 519 32,000  Level FlightAware ADS-B
Fri 11:57:43 PM 40.6630 138.2900 359° North 452 520 32,000  Level FlightAware ADS-B
Fri 11:58:28 PM 40.7580 138.2880 359° North 454 522 32,000  Level FlightAware ADS-B
Fri 11:59:08 PM 40.8430 138.2870 359° North 454 522 32,000  Level FlightAware ADS-B
Fri 11:59:53 PM 40.9310 138.2860 360° North 454 522 32,000  Level FlightAware ADS-B
Sat 12:00:33 AM 41.0120 138.2850 359° North 454 522 32,000  Level FlightAware ADS-B
Sat 12:01:13 AM 41.1030 138.2830 359° North 447 514 32,000  Level FlightAware ADS-B
Sat 12:01:58 AM 41.1940 138.2820 360° North 447 514 32,000  Level FlightAware ADS-B
Sat 12:02:38 AM 41.2790 138.2810 359° North 447 514 32,000  Level FlightAware ADS-B
Sat 12:03:23 AM 41.3690 138.2800 360° North 454 522 32,000  Level FlightAware ADS-B
Sat 12:04:03 AM 41.4570 138.2780 359° North 454 522 32,000  Level FlightAware ADS-B
Sat 12:04:43 AM 41.5450 138.2770 360° North 453 521 32,000  Level FlightAware ADS-B
Sat 12:05:28 AM 41.6340 138.2760 360° North 454 522 32,000  Level FlightAware ADS-B
Sat 12:06:08 AM 41.7140 138.2750 359° North 447 514 32,000  Level FlightAware ADS-B
Sat 12:06:48 AM 41.8000 138.2730 359° North 447 514 32,000  Level FlightAware ADS-B
Sat 12:07:33 AM 41.9010 138.2720 360° North 449 517 32,000  Level FlightAware ADS-B
Sat 12:08:13 AM 41.9880 138.2710 360° North 449 517 32,000  Level FlightAware ADS-B
Sat 12:08:58 AM 42.0820 138.2690 359° North 450 518 32,000  Level FlightAware ADS-B
Sat 12:11:00 AM 42.3093 138.1278 335° Northwest  Level Estimated
Sat 12:11:18 AM 42.3760 138.2650 335° Northwest 454 522 32,000  Level FlightAware ADS-B
Sat 12:11:58 AM 42.4520 138.2640 359° North 453 521 32,000  Level FlightAware ADS-B
Sat 12:12:48 AM 42.5570 138.2620 359° North 453 521 32,000  Level FlightAware ADS-B
Sat 12:13:38 AM 42.6460 138.2600 359° North 453 521 32,000  Level FlightAware ADS-B
Sat 12:14:18 AM 42.7170 138.2580 359° North 453 521 32,000  Level FlightAware ADS-B
Sat 12:14:58 AM 42.7890 138.2560 359° North 453 521 32,000  Level FlightAware ADS-B
Sat 12:15:38 AM 42.8600 138.2550 359° North 453 521 32,000  Level FlightAware ADS-B
Sat 12:16:18 AM 42.9310 138.2530 359° North 453 521 32,000  Level FlightAware ADS-B
Sat 12:17:08 AM 43.0200 138.2510 359° North 453 521 32,000  Level FlightAware ADS-B
Sat 12:17:48 AM 43.0910 138.2490 359° North 453 521 32,000  Level FlightAware ADS-B
Sat 12:18:28 AM 43.1630 138.2470 359° North 453 521 32,000  Level FlightAware ADS-B
Sat 12:19:58 AM 43.4740 138.2480 360° North 454 522 32,000  Level FlightAware ADS-B
Sat 12:20:38 AM 43.5520 138.2470 359° North 447 514 32,000  Level FlightAware ADS-B
Sat 12:21:23 AM 43.6450 138.2450 359° North 447 514 32,000  Level FlightAware ADS-B
Sat 12:22:13 AM 43.7510 138.2380 357° North 454 522 32,000  Level FlightAware ADS-B
Sat 12:22:53 AM 43.8220 138.2330 357° North 454 522 32,000  Level FlightAware ADS-B
Sat 12:23:43 AM 43.9110 138.2260 357° North 454 522 32,000  Level FlightAware ADS-B
Sat 12:24:23 AM 43.9820 138.2210 357° North 454 522 32,000  Level FlightAware ADS-B
Sat 12:25:03 AM 44.0540 138.2160 357° North 454 522 32,000  Level FlightAware ADS-B
Sat 12:25:43 AM 44.1250 138.2100 357° North 454 522 32,000  Level FlightAware ADS-B
Sat 12:26:33 AM 44.2140 138.2040 357° North 454 522 32,000  Level FlightAware ADS-B
Sat 12:27:13 AM 44.2850 138.1990 357° North 454 522 32,000  Level FlightAware ADS-B
Sat 12:27:53 AM 44.3570 138.1940 357° North 454 522 32,000  Level FlightAware ADS-B
Sat 12:28:33 AM 44.4280 138.1880 357° North 454 522 32,000  Level FlightAware ADS-B
Sat 12:29:13 AM 44.4990 138.1830 357° North 454 522 32,000  Level FlightAware ADS-B
Sat 12:29:53 AM 44.5710 138.1780 357° North 454 522 32,000  Level FlightAware ADS-B
Sat 12:30:43 AM 44.6600 138.1710 357° North 454 522 32,000  Level FlightAware ADS-B
Sat 12:31:23 AM 44.7310 138.1660 357° North 454 522 32,000  Level FlightAware ADS-B
Sat 12:33:00 AM 44.9115 138.0473 335° Northwest  Level Estimated
Sat 12:34:00 AM 45.0232 137.9736 335° Northwest  Level Estimated
Sat 12:35:00 AM 45.1347 137.8995 335° Northwest  Level Estimated
Sat 12:36:00 AM 45.2463 137.8252 335° Northwest  Level Estimated
Sat 12:37:00 AM 45.3577 137.7505 335° Northwest  Level Estimated
Sat 12:38:00 AM 45.4692 137.6756 335° Northwest  Level Estimated
Sat 12:39:00 AM 45.5806 137.6003 335° Northwest  Level Estimated
Sat 12:40:00 AM 45.6919 137.5248 335° Northwest  Level Estimated
Sat 12:41:00 AM 45.8032 137.4490 335° Northwest  Level Estimated
Sat 12:42:00 AM 45.9144 137.3728 335° Northwest  Level Estimated
Sat 12:43:00 AM 46.0256 137.2964 334° Northwest  Level Estimated
Sat 12:43:33 AM 46.3590 138.0790 334° Northwest 436 502 32,000  Level FlightAware ADS-B
Sat 12:44:08 AM 46.4370 138.0740 357° North 436 502 32,000  Level FlightAware ADS-B
Sat 12:44:53 AM 46.5200 138.0630 355° North 436 502 32,000  Level FlightAware ADS-B
Sat 12:45:53 AM 46.6410 138.0100 343° North 442 509 32,000  Level FlightAware ADS-B
Sat 12:46:33 AM 46.7200 137.9710 341° North 441 507 32,000  Level FlightAware ADS-B
Sat 12:47:18 AM 46.7990 137.9320 341° North 442 509 32,000  Level FlightAware ADS-B
Sat 12:47:58 AM 46.8860 137.8900 342° North 444 511 32,000  Level FlightAware ADS-B
Sat 12:48:38 AM 46.9630 137.8520 341° North 443 510 32,000  Level FlightAware ADS-B
Sat 12:49:33 AM 47.0640 137.8030 342° North 440 506 32,000  Level FlightAware ADS-B
Sat 12:50:18 AM 47.1430 137.7630 341° North 443 510 32,000  Level FlightAware ADS-B
Sat 12:50:58 AM 47.2300 137.7200 341° North 444 511 32,000  Level FlightAware ADS-B
Sat 12:51:33 AM 47.3030 137.6840 342° North 447 514 32,000  Level FlightAware ADS-B
Sat 12:52:23 AM 47.3930 137.6390 341° North 448 516 32,000  Level FlightAware ADS-B
Sat 12:53:03 AM 47.4770 137.5970 341° North 449 517 32,000  Level FlightAware ADS-B
Sat 12:53:43 AM 47.5550 137.5580 341° North 452 520 32,000  Level FlightAware ADS-B
Sat 12:54:28 AM 47.6400 137.5150 341° North 452 520 32,000  Level FlightAware ADS-B
Sat 12:55:13 AM 47.7310 137.4690 341° North 454 522 32,000  Level FlightAware ADS-B
Sat 12:55:53 AM 47.8120 137.4280 341° North 453 521 32,000  Level FlightAware ADS-B
Sat 12:56:33 AM 47.8910 137.3880 341° North 453 521 32,000  Level FlightAware ADS-B
Sat 12:57:13 AM 47.9680 137.3490 341° North 455 524 32,000  Level FlightAware ADS-B
Sat 12:57:48 AM 48.0400 137.3120 341° North 454 522 32,000  Level FlightAware ADS-B
Sat 12:58:23 AM 48.1090 137.2770 341° North 454 522 32,000  Level FlightAware ADS-B
Sat 12:59:08 AM 48.1920 137.2340 341° North 456 525 32,000  Level FlightAware ADS-B
Sat 12:59:53 AM 48.2890 137.1830 341° North 459 528 32,000  Level FlightAware ADS-B
Sat 01:00:33 AM 48.3730 137.1400 341° North 458 527 32,000  Level FlightAware ADS-B
Sat 01:01:18 AM 48.4610 137.0940 341° North 457 526 32,000  Level FlightAware ADS-B
Sat 01:01:53 AM 48.5300 137.0580 341° North 459 528 32,000  Level FlightAware ADS-B
Sat 01:02:38 AM 48.6130 137.0150 341° North 460 529 32,000  Level FlightAware ADS-B
Sat 01:03:18 AM 48.6930 136.9730 341° North 457 526 32,000  Level FlightAware ADS-B
Sat 01:04:03 AM 48.7860 136.9240 341° North 458 527 32,000  Level FlightAware ADS-B
Sat 01:04:48 AM 48.8770 136.8760 341° North 457 526 32,000  Level FlightAware ADS-B
Sat 01:05:28 AM 48.9590 136.8320 341° North 460 529 32,000  Level FlightAware ADS-B
Sat 01:06:08 AM 49.0430 136.7870 341° North 461 531 32,000  Level FlightAware ADS-B
Sat 01:06:53 AM 49.1250 136.7430 341° North 464 534 32,000  Level FlightAware ADS-B
Sat 01:07:28 AM 49.2070 136.6980 340° North 465 535 32,000  Level FlightAware ADS-B
Sat 01:08:18 AM 49.2990 136.6470 340° North 466 536 32,000  Level FlightAware ADS-B
Sat 01:08:53 AM 49.3740 136.6070 341° North 466 536 32,000  Level FlightAware ADS-B
Sat 01:09:38 AM 49.4680 136.5460 337° Northwest 474 545 32,000  Level FlightAware ADS-B
Sat 01:10:23 AM 49.5480 136.4770 331° Northwest 478 550 32,000  Level FlightAware ADS-B
Sat 01:10:58 AM 49.6170 136.4140 329° Northwest 481 554 32,000  Level FlightAware ADS-B
Sat 01:12:03 AM 49.7430 136.2920 328° Northwest 483 556 32,000  Level FlightAware ADS-B
Sat 01:12:38 AM 49.8110 136.2260 328° Northwest 481 554 32,000  Level FlightAware ADS-B
Sat 01:13:18 AM 49.8800 136.1600 328° Northwest 482 555 32,000  Level FlightAware ADS-B
Sat 01:14:08 AM 49.9720 136.0710 328° Northwest 484 557 32,000  Level FlightAware ADS-B
Sat 01:14:48 AM 50.0580 135.9880 328° Northwest 484 557 32,000  Level FlightAware ADS-B
Sat 01:15:33 AM 50.1420 135.9060 328° Northwest 485 558 32,000  Level FlightAware ADS-B
Sat 01:16:23 AM 50.2330 135.8160 328° Northwest 485 558 32,000  Level FlightAware ADS-B
Sat 01:17:03 AM 50.3080 135.7430 328° Northwest 485 558 32,000  Level FlightAware ADS-B
Sat 01:17:58 AM 50.4100 135.6420 328° Northwest 487 560 32,000  Level FlightAware ADS-B
Sat 01:18:48 AM 50.5110 135.5420 328° Northwest 488 562 32,000  Level FlightAware ADS-B
Sat 01:19:23 AM 50.5700 135.4830 328° Northwest 489 563 32,000  Level FlightAware ADS-B
Sat 01:20:03 AM 50.6610 135.3920 328° Northwest 490 564 32,000  Level FlightAware ADS-B
Sat 01:20:48 AM 50.7360 135.3170 328° Northwest 491 565 32,000  Level FlightAware ADS-B
Sat 01:21:33 AM 50.8160 135.2360 327° Northwest 492 566 32,000  Level FlightAware ADS-B
Sat 01:22:18 AM 50.8990 135.1520 327° Northwest 492 566 32,000  Level FlightAware ADS-B
Sat 01:22:58 AM 51.0090 135.0440 328° Northwest 493 567 32,000  Level FlightAware ADS-B
Sat 01:23:38 AM 51.0850 134.9690 328° Northwest 495 570 32,000  Level FlightAware ADS-B
Sat 01:24:08 AM 51.1410 134.9130 328° Northwest 494 568 32,000  Level FlightAware ADS-B
Sat 01:24:53 AM 51.2360 134.8190 328° Northwest 496 571 32,000  Level FlightAware ADS-B
Sat 01:25:33 AM 51.2870 134.7680 328° Northwest 496 571 32,000  Level FlightAware ADS-B
Sat 01:26:08 AM 51.3430 134.7110 328° Northwest 497 572 32,000  Level FlightAware ADS-B
Sat 01:26:58 AM 51.4380 134.6160 328° Northwest 497 572 32,000  Level FlightAware ADS-B
Sat 01:27:53 AM 51.5730 134.4800 328° Northwest 498 573 32,000  Level FlightAware ADS-B
Sat 01:28:28 AM 51.6470 134.4050 328° Northwest 498 573 32,000 71 Level FlightAware ADS-B
Sat 01:29:18 AM 51.7460 134.3040 328° Northwest 498 573 32,100 212 Climbing FlightAware ADS-B
Sat 01:29:53 AM 51.7790 134.2700 327° Northwest 494 568 32,300 150 Climbing FlightAware ADS-B
Sat 01:30:38 AM 51.8570 134.1880 327° Northwest 494 568 32,300  Level FlightAware ADS-B
Sat 01:31:18 AM 51.9220 134.1200 327° Northwest 494 568 32,300  Level FlightAware ADS-B
Sat 01:32:08 AM 52.0040 134.0340 327° Northwest 494 568 32,300  Level FlightAware ADS-B
Sat 01:32:48 AM 52.0690 133.9650 327° Northwest 494 568 32,300  Level FlightAware ADS-B
Sat 01:33:28 AM 52.1340 133.8960 327° Northwest 494 568 32,300  Level FlightAware ADS-B
Sat 01:34:08 AM 52.1990 133.8270 327° Northwest 494 568 32,300  Level FlightAware ADS-B
Sat 01:34:48 AM 52.2640 133.7580 327° Northwest 494 568 32,300  Level FlightAware ADS-B
Sat 01:35:28 AM 52.3300 133.6890 327° Northwest 494 568 32,300  Level FlightAware ADS-B
Sat 01:36:18 AM 52.4110 133.6020 327° Northwest 494 568 32,300  Level FlightAware ADS-B
Sat 01:36:58 AM 52.4760 133.5330 327° Northwest 494 568 32,300  Level FlightAware ADS-B
Sat 01:37:38 AM 52.5410 133.4630 327° Northwest 494 568 32,300  Level FlightAware ADS-B
Sat 01:38:18 AM 52.6060 133.3940 327° Northwest 494 568 32,300  Level FlightAware ADS-B
Sat 01:38:58 AM 52.6720 133.3240 327° Northwest 494 568 32,300  Level FlightAware ADS-B
Sat 01:39:48 AM 52.7530 133.2360 327° Northwest 494 568 32,300 10 Level FlightAware ADS-B
Sat 01:42:00 AM 52.9905 133.0181 331° Northwest  Level Estimated
Sat 01:43:00 AM 53.0983 132.9183 331° Northwest  Level Estimated
Sat 01:44:00 AM 53.2060 132.8179 331° Northwest  Level Estimated
Sat 01:45:00 AM 53.3137 132.7171 331° Northwest  Level Estimated
Sat 01:46:00 AM 53.4212 132.6158 331° Northwest  Level Estimated
Sat 01:47:00 AM 53.5287 132.5139 331° Northwest  Level Estimated
Sat 01:48:00 AM 53.6361 132.4115 331° Northwest  Level Estimated
Sat 01:49:00 AM 53.7434 132.3086 330° Northwest  Level Estimated
Sat 01:50:00 AM 53.8506 132.2052 330° Northwest  Level Estimated
Sat 01:51:00 AM 53.9577 132.1012 330° Northwest  Level Estimated
Sat 01:52:00 AM 54.0648 131.9967 330° Northwest  Level Estimated
Sat 01:53:00 AM 54.1717 131.8917 330° Northwest  Level Estimated
Sat 01:54:00 AM 54.2786 131.7861 330° Northwest  Level Estimated
Sat 01:55:00 AM 54.3853 131.6800 330° Northwest  Level Estimated
Sat 01:56:00 AM 54.4920 131.5733 330° Northwest  Level Estimated
Sat 01:57:00 AM 54.5986 131.4660 330° Northwest  Level Estimated
Sat 01:58:00 AM 54.7050 131.3582 330° Northwest  Level Estimated
Sat 01:59:00 AM 54.8114 131.2499 330° Northwest  Level Estimated
Sat 02:00:00 AM 54.9177 131.1409 330° Northwest  Level Estimated
Sat 02:01:00 AM 55.0239 131.0314 329° Northwest  Level Estimated
Sat 02:02:00 AM 55.1301 130.9212 329° Northwest  Level Estimated
Sat 02:03:00 AM 55.2363 130.8103 329° Northwest  Level Estimated
Sat 02:04:00 AM 55.3423 130.6989 329° Northwest  Level Estimated
Sat 02:05:00 AM 55.4482 130.5868 329° Northwest  Level Estimated
Sat 02:06:00 AM 55.5541 130.4742 329° Northwest  Level Estimated
Sat 02:07:00 AM 55.6598 130.3609 329° Northwest  Level Estimated
Sat 02:08:00 AM 55.7654 130.2471 329° Northwest  Level Estimated
Sat 02:09:00 AM 55.8709 130.1326 329° Northwest  Level Estimated
Sat 02:10:00 AM 55.9763 130.0175 329° Northwest  Level Estimated
Sat 02:11:00 AM 56.0816 129.9018 328° Northwest  Level Estimated
Sat 02:12:00 AM 56.1868 129.7854 328° Northwest  Level Estimated
Sat 02:13:00 AM 56.2919 129.6684 328° Northwest  Level Estimated
Sat 02:14:00 AM 56.3969 129.5507 328° Northwest  Level Estimated
Sat 02:15:00 AM 56.5017 129.4324 328° Northwest  Level Estimated
Sat 02:16:00 AM 56.6065 129.3135 328° Northwest  Level Estimated
Sat 02:17:00 AM 56.7111 129.1938 328° Northwest  Level Estimated
Sat 02:18:00 AM 56.8156 129.0736 328° Northwest  Level Estimated
Sat 02:19:00 AM 56.9200 128.9526 328° Northwest  Level Estimated
Sat 02:20:00 AM 57.0243 128.8310 328° Northwest  Level Estimated
Sat 02:21:00 AM 57.1285 128.7086 328° Northwest  Level Estimated
Sat 02:22:00 AM 57.2325 128.5856 327° Northwest  Level Estimated
Sat 02:23:00 AM 57.3364 128.4619 327° Northwest  Level Estimated
Sat 02:24:00 AM 57.4403 128.3375 327° Northwest  Level Estimated
Sat 02:25:00 AM 57.5439 128.2124 327° Northwest  Level Estimated
Sat 02:26:00 AM 57.6475 128.0866 327° Northwest  Level Estimated
Sat 02:27:00 AM 57.7509 127.9600 327° Northwest  Level Estimated
Sat 02:28:00 AM 57.8542 127.8327 327° Northwest  Level Estimated
Sat 02:29:00 AM 57.9574 127.7047 327° Northwest  Level Estimated
Sat 02:30:00 AM 58.0604 127.5760 327° Northwest  Level Estimated
Sat 02:31:00 AM 58.1633 127.4465 326° Northwest  Level Estimated
Sat 02:32:00 AM 58.2661 127.3163 326° Northwest  Level Estimated
Sat 02:33:00 AM 58.3688 127.1853 326° Northwest  Level Estimated
Sat 02:34:00 AM 58.4713 127.0535 326° Northwest  Level Estimated
Sat 02:35:00 AM 58.5737 126.9210 326° Northwest  Level Estimated
Sat 02:36:00 AM 58.6759 126.7877 326° Northwest  Level Estimated
Sat 02:37:00 AM 58.7780 126.6536 326° Northwest  Level Estimated
Sat 02:38:00 AM 58.8800 126.5187 326° Northwest  Level Estimated
Sat 02:39:00 AM 58.9818 126.3830 326° Northwest  Level Estimated
Sat 02:40:00 AM 59.0835 126.2465 325° Northwest  Level Estimated
Sat 02:41:00 AM 59.1850 126.1092 325° Northwest  Level Estimated
Sat 02:42:00 AM 59.2864 125.9711 325° Northwest  Level Estimated
Sat 02:43:00 AM 59.3876 125.8322 325° Northwest  Level Estimated
Sat 02:44:00 AM 59.4887 125.6924 325° Northwest  Level Estimated
Sat 02:45:00 AM 59.5896 125.5518 325° Northwest  Level Estimated
Sat 02:46:00 AM 59.6904 125.4104 325° Northwest  Level Estimated
Sat 02:47:00 AM 59.7911 125.2681 325° Northwest  Level Estimated
Sat 02:48:00 AM 59.8915 125.1249 324° Northwest  Level Estimated
Sat 02:49:00 AM 59.9919 124.9809 324° Northwest  Level Estimated
Sat 02:50:00 AM 60.0920 124.8359 324° Northwest  Level Estimated
Sat 02:51:00 AM 60.1921 124.6901 324° Northwest  Level Estimated
Sat 02:52:00 AM 60.2919 124.5435 324° Northwest  Level Estimated
Sat 02:53:00 AM 60.3917 124.3957 324° Northwest  Level Estimated
Sat 02:54:00 AM 60.4914 124.2470 324° Northwest  Level Estimated
Sat 02:55:00 AM 60.5909 124.0974 324° Northwest  Level Estimated
Sat 02:56:00 AM 60.6902 123.9468 323° Northwest  Level Estimated
Sat 02:57:00 AM 60.7894 123.7953 323° Northwest  Level Estimated
Sat 02:58:00 AM 60.8884 123.6429 323° Northwest  Level Estimated
Sat 02:59:00 AM 60.9872 123.4896 323° Northwest  Level Estimated
Sat 03:00:00 AM 61.0858 123.3353 323° Northwest  Level Estimated
Sat 03:01:00 AM 61.1843 123.1800 323° Northwest  Level Estimated
Sat 03:02:00 AM 61.2826 123.0237 323° Northwest  Level Estimated
Sat 03:03:00 AM 61.3807 122.8665 323° Northwest  Level Estimated
Sat 03:04:00 AM 61.4786 122.7083 322° Northwest  Level Estimated
Sat 03:05:00 AM 61.5764 122.5491 322° Northwest  Level Estimated
Sat 03:06:00 AM 61.6739 122.3888 322° Northwest  Level Estimated
Sat 03:07:00 AM 61.7713 122.2276 322° Northwest  Level Estimated
Sat 03:08:00 AM 61.8684 122.0653 322° Northwest  Level Estimated
Sat 03:09:00 AM 61.9654 121.9020 322° Northwest  Level Estimated
Sat 03:10:00 AM 62.0622 121.7377 322° Northwest  Level Estimated
Sat 03:11:00 AM 62.1588 121.5723 321° Northwest  Level Estimated
Sat 03:12:00 AM 62.2552 121.4059 321° Northwest  Level Estimated
Sat 03:13:00 AM 62.3514 121.2384 321° Northwest  Level Estimated
Sat 03:14:00 AM 62.4474 121.0698 321° Northwest  Level Estimated
Sat 03:15:00 AM 62.5432 120.9001 321° Northwest  Level Estimated
Sat 03:16:00 AM 62.6387 120.7293 321° Northwest  Level Estimated
Sat 03:17:00 AM 62.7341 120.5575 320° Northwest  Level Estimated
Sat 03:18:00 AM 62.8293 120.3845 320° Northwest  Level Estimated
Sat 03:19:00 AM 62.9242 120.2104 320° Northwest  Level Estimated
Sat 03:20:00 AM 63.0189 120.0352 320° Northwest  Level Estimated
Sat 03:21:00 AM 63.1134 119.8588 320° Northwest  Level Estimated
Sat 03:22:00 AM 63.2077 119.6813 320° Northwest  Level Estimated
Sat 03:23:00 AM 63.3018 119.5026 320° Northwest  Level Estimated
Sat 03:24:00 AM 63.3956 119.3227 319° Northwest  Level Estimated
Sat 03:25:00 AM 63.4893 119.1417 319° Northwest  Level Estimated
Sat 03:26:00 AM 63.5826 118.9595 319° Northwest  Level Estimated
Sat 03:27:00 AM 63.6758 118.7761 319° Northwest  Level Estimated
Sat 03:28:00 AM 63.7687 118.5915 319° Northwest  Level Estimated
Sat 03:29:00 AM 63.8614 118.4056 319° Northwest  Level Estimated
Sat 03:30:00 AM 63.9538 118.2185 318° Northwest  Level Estimated
Sat 03:31:00 AM 64.0460 118.0302 318° Northwest  Level Estimated
Sat 03:32:00 AM 64.1380 117.8407 318° Northwest  Level Estimated
Sat 03:33:00 AM 64.2297 117.6499 318° Northwest  Level Estimated
Sat 03:34:00 AM 64.3211 117.4578 318° Northwest  Level Estimated
Sat 03:35:00 AM 64.4123 117.2644 318° Northwest  Level Estimated
Sat 03:36:00 AM 64.5033 117.0698 317° Northwest  Level Estimated
Sat 03:37:00 AM 64.5939 116.8738 317° Northwest  Level Estimated
Sat 03:38:00 AM 64.6844 116.6766 317° Northwest  Level Estimated
Sat 03:39:00 AM 64.7745 116.4780 317° Northwest  Level Estimated
Sat 03:40:00 AM 64.8644 116.2781 317° Northwest  Level Estimated
Sat 03:41:00 AM 64.9540 116.0769 316° Northwest  Level Estimated
Sat 03:42:00 AM 65.0434 115.8743 316° Northwest  Level Estimated
Sat 03:43:00 AM 65.1324 115.6703 316° Northwest  Level Estimated
Sat 03:44:00 AM 65.2212 115.4650 316° Northwest  Level Estimated
Sat 03:45:00 AM 65.3098 115.2583 316° Northwest  Level Estimated
Sat 03:46:00 AM 65.3980 115.0502 316° Northwest  Level Estimated
Sat 03:47:00 AM 65.4859 114.8407 315° West  Level Estimated
Sat 03:48:00 AM 65.5736 114.6298 315° West  Level Estimated
Sat 03:49:00 AM 65.6609 114.4175 315° West  Level Estimated
Sat 03:50:00 AM 65.7480 114.2037 315° West  Level Estimated
Sat 03:51:00 AM 65.8347 113.9885 315° West  Level Estimated
Sat 03:52:00 AM 65.9212 113.7719 314° West  Level Estimated
Sat 03:53:00 AM 66.0073 113.5537 314° West  Level Estimated
Sat 03:54:00 AM 66.0932 113.3341 314° West  Level Estimated
Sat 03:55:00 AM 66.1787 113.1130 314° West  Level Estimated
Sat 03:56:00 AM 66.2639 112.8904 314° West  Level Estimated
Sat 03:57:00 AM 66.3488 112.6663 313° West  Level Estimated
Sat 03:58:00 AM 66.4333 112.4407 313° West  Level Estimated
Sat 03:59:00 AM 66.5175 112.2136 313° West  Level Estimated
Sat 04:00:00 AM 66.6014 111.9849 313° West  Level Estimated
Sat 04:01:00 AM 66.6849 111.7550 313° West  Level Estimated
Sat 04:02:00 AM 66.7680 111.5236 312° West  Level Estimated
Sat 04:03:00 AM 66.8508 111.2905 312° West  Level Estimated
Sat 04:04:00 AM 66.9332 111.0559 312° West  Level Estimated
Sat 04:05:00 AM 67.0153 110.8197 312° West  Level Estimated
Sat 04:06:00 AM 67.0970 110.5820 312° West  Level Estimated
Sat 04:07:00 AM 67.1783 110.3426 311° West  Level Estimated
Sat 04:08:00 AM 67.2593 110.1016 311° West  Level Estimated
Sat 04:09:00 AM 67.3400 109.8589 311° West  Level Estimated
Sat 04:10:00 AM 67.4202 109.6146 311° West  Level Estimated
Sat 04:11:00 AM 67.5002 109.3687 310° West  Level Estimated
Sat 04:12:00 AM 67.5797 109.1211 310° West  Level Estimated
Sat 04:13:00 AM 67.6588 108.8719 310° West  Level Estimated
Sat 04:14:00 AM 67.7376 108.6210 310° West  Level Estimated
Sat 04:15:00 AM 67.8159 108.3684 309° West  Level Estimated
Sat 04:16:00 AM 67.8939 108.1141 309° West  Level Estimated
Sat 04:17:00 AM 67.9715 107.8580 309° West  Level Estimated
Sat 04:18:00 AM 68.0487 107.6003 309° West  Level Estimated
Sat 04:19:00 AM 68.1255 107.3409 309° West  Level Estimated
Sat 04:20:00 AM 68.2018 107.0797 308° West  Level Estimated
Sat 04:21:00 AM 68.2778 106.8167 308° West  Level Estimated
Sat 04:22:00 AM 68.3533 106.5521 308° West  Level Estimated
Sat 04:23:00 AM 68.4285 106.2856 308° West  Level Estimated
Sat 04:24:00 AM 68.5031 106.0174 307° West  Level Estimated
Sat 04:25:00 AM 68.5774 105.7474 307° West  Level Estimated
Sat 04:26:00 AM 68.6512 105.4757 307° West  Level Estimated
Sat 04:27:00 AM 68.7246 105.2021 307° West  Level Estimated
Sat 04:28:00 AM 68.7975 104.9267 306° West  Level Estimated
Sat 04:29:00 AM 68.8700 104.6496 306° West  Level Estimated
Sat 04:30:00 AM 68.9421 104.3706 306° West  Level Estimated
Sat 04:31:00 AM 69.0136 104.0898 306° West  Level Estimated
Sat 04:32:00 AM 69.0848 103.8072 305° West  Level Estimated
Sat 04:33:00 AM 69.1554 103.5227 305° West  Level Estimated
Sat 04:34:00 AM 69.2256 103.2364 305° West  Level Estimated
Sat 04:35:00 AM 69.2953 102.9482 304° West  Level Estimated
Sat 04:36:00 AM 69.3645 102.6582 304° West  Level Estimated
Sat 04:37:00 AM 69.4333 102.3663 304° West  Level Estimated
Sat 04:38:00 AM 69.5015 102.0726 304° West  Level Estimated
Sat 04:39:00 AM 69.5692 101.7770 303° West  Level Estimated
Sat 04:40:00 AM 69.6365 101.4795 303° West  Level Estimated
Sat 04:41:00 AM 69.7032 101.1802 303° West  Level Estimated
Sat 04:42:00 AM 69.7694 100.8789 303° West  Level Estimated
Sat 04:43:00 AM 69.8351 100.5758 302° West  Level Estimated
Sat 04:44:00 AM 69.9003 100.2707 302° West  Level Estimated
Sat 04:45:00 AM 69.9650 99.9638 302° West  Level Estimated
Sat 04:46:00 AM 70.0291 99.6550 301° West  Level Estimated
Sat 04:47:00 AM 70.0927 99.3443 301° West  Level Estimated
Sat 04:48:00 AM 70.1557 99.0316 301° West  Level Estimated
Sat 04:49:00 AM 70.2182 98.7171 301° West  Level Estimated
Sat 04:50:00 AM 70.2801 98.4007 300° West  Level Estimated
Sat 04:51:00 AM 70.3415 98.0824 300° West  Level Estimated
Sat 04:52:00 AM 70.4023 97.7621 300° West  Level Estimated
Sat 04:53:00 AM 70.4626 97.4400 299° West  Level Estimated
Sat 04:54:00 AM 70.5222 97.1159 299° West  Level Estimated
Sat 04:55:00 AM 70.5813 96.7899 299° West  Level Estimated
Sat 04:56:00 AM 70.6398 96.4621 298° West  Level Estimated
Sat 04:57:00 AM 70.6977 96.1323 298° West  Level Estimated
Sat 04:58:00 AM 70.7551 95.8007 298° West  Level Estimated
Sat 04:59:00 AM 70.8118 95.4671 297° West  Level Estimated
Sat 05:00:00 AM 70.8679 95.1317 297° West  Level Estimated
Sat 05:01:00 AM 70.9234 94.7943 297° West  Level Estimated
Sat 05:02:00 AM 70.9783 94.4551 297° West  Level Estimated
Sat 05:03:00 AM 71.0325 94.1140 296° West  Level Estimated
Sat 05:04:00 AM 71.0862 93.7710 296° West  Level Estimated
Sat 05:05:00 AM 71.1392 93.4261 296° West  Level Estimated
Sat 05:06:00 AM 71.1916 93.0794 295° West  Level Estimated
Sat 05:07:00 AM 71.2433 92.7309 295° West  Level Estimated
Sat 05:08:00 AM 71.2943 92.3805 295° West  Level Estimated
Sat 05:09:00 AM 71.3448 92.0282 294° West  Level Estimated
Sat 05:10:00 AM 71.3945 91.6741 294° West  Level Estimated
Sat 05:11:00 AM 71.4436 91.3182 294° West  Level Estimated
Sat 05:12:00 AM 71.4920 90.9605 293° West  Level Estimated
Sat 05:13:00 AM 71.5398 90.6010 293° West  Level Estimated
Sat 05:14:00 AM 71.5869 90.2398 293° West  Level Estimated
Sat 05:15:00 AM 71.6332 89.8767 292° West  Level Estimated
Sat 05:16:00 AM 71.6789 89.5119 292° West  Level Estimated
Sat 05:17:00 AM 71.7239 89.1453 292° West  Level Estimated
Sat 05:18:00 AM 71.7683 88.7765 291° West  Level Estimated
Sat 05:19:00 AM 71.8119 88.4059 291° West  Level Estimated
Sat 05:20:00 AM 71.8548 88.0336 290° West  Level Estimated
Sat 05:21:00 AM 71.8970 87.6597 290° West  Level Estimated
Sat 05:22:00 AM 71.9385 87.2840 290° West  Level Estimated
Sat 05:23:00 AM 71.9793 86.9067 289° West  Level Estimated
Sat 05:24:00 AM 72.0193 86.5278 289° West  Level Estimated
Sat 05:25:00 AM 72.0586 86.1473 289° West  Level Estimated
Sat 05:26:00 AM 72.0971 85.7651 288° West  Level Estimated
Sat 05:27:00 AM 72.1349 85.3814 288° West  Level Estimated
Sat 05:28:00 AM 72.1720 84.9961 288° West  Level Estimated
Sat 05:29:00 AM 72.2082 84.6093 287° West  Level Estimated
Sat 05:30:00 AM 72.2438 84.2209 287° West  Level Estimated
Sat 05:31:00 AM 72.2785 83.8311 286° West  Level Estimated
Sat 05:32:00 AM 72.3125 83.4398 286° West  Level Estimated
Sat 05:33:00 AM 72.3457 83.0471 286° West  Level Estimated
Sat 05:34:00 AM 72.3781 82.6529 285° West  Level Estimated
Sat 05:35:00 AM 72.4098 82.2574 285° West  Level Estimated
Sat 05:36:00 AM 72.4406 81.8605 285° West  Level Estimated
Sat 05:37:00 AM 72.4706 81.4622 284° West  Level Estimated
Sat 05:38:00 AM 72.4999 81.0627 284° West  Level Estimated
Sat 05:39:00 AM 72.5284 80.6619 283° West  Level Estimated
Sat 05:40:00 AM 72.5560 80.2598 283° West  Level Estimated
Sat 05:41:00 AM 72.5828 79.8565 283° West  Level Estimated
Sat 05:42:00 AM 72.6089 79.4520 282° West  Level Estimated
Sat 05:43:00 AM 72.6341 79.0464 282° West  Level Estimated
Sat 05:44:00 AM 72.6585 78.6396 282° West  Level Estimated
Sat 05:45:00 AM 72.6821 78.2318 281° West  Level Estimated
Sat 05:46:00 AM 72.7048 77.8229 281° West  Level Estimated
Sat 05:47:00 AM 72.7267 77.4129 280° West  Level Estimated
Sat 05:48:00 AM 72.7478 77.0020 280° West  Level Estimated
Sat 05:49:00 AM 72.7680 76.5901 280° West  Level Estimated
Sat 05:50:00 AM 72.7874 76.1773 279° West  Level Estimated
Sat 05:51:00 AM 72.8060 75.7637 279° West  Level Estimated
Sat 05:52:00 AM 72.8237 75.3491 278° West  Level Estimated
Sat 05:53:00 AM 72.8405 74.9338 278° West  Level Estimated
Sat 05:54:00 AM 72.8565 74.5177 278° West  Level Estimated
Sat 05:55:00 AM 72.8717 74.1002 277° West  Level Estimated
Sat 05:56:00 AM 72.8860 73.6821 277° West  Level Estimated
Sat 05:57:00 AM 72.8995 73.2633 276° West  Level Estimated
Sat 05:58:00 AM 72.9121 72.8439 276° West  Level Estimated
Sat 05:59:00 AM 72.9238 72.4239 276° West  Level Estimated
Sat 06:00:00 AM 72.9347 72.0033 275° West  Level Estimated
Sat 06:01:00 AM 72.9447 71.5823 275° West  Level Estimated
Sat 06:02:00 AM 72.9539 71.1608 274° West  Level Estimated
Sat 06:03:00 AM 72.9621 70.7389 274° West  Level Estimated
Sat 06:04:00 AM 72.9695 70.3166 274° West  Level Estimated
Sat 06:05:00 AM 72.9761 69.8939 273° West  Level Estimated
Sat 06:06:00 AM 72.9817 69.4710 273° West  Level Estimated
Sat 06:07:00 AM 72.9865 69.0484 272° West  Level Estimated
Sat 06:08:00 AM 72.9904 68.6257 272° West  Level Estimated
Sat 06:09:00 AM 72.9934 68.2027 272° West  Level Estimated
Sat 06:10:00 AM 72.9955 67.7797 271° West  Level Estimated
Sat 06:11:00 AM 72.9968 67.3565 271° West  Level Estimated
Sat 06:12:00 AM 72.9972 66.9333 270° West  Level Estimated
Sat 06:13:00 AM 72.9967 66.5101 270° West  Level Estimated
Sat 06:14:00 AM 72.9954 66.0870 270° West  Level Estimated
Sat 06:15:00 AM 72.9932 65.6639 269° West  Level Estimated
Sat 06:16:00 AM 72.9901 65.2410 269° West  Level Estimated
Sat 06:17:00 AM 72.9861 64.8182 268° West  Level Estimated
Sat 06:18:00 AM 72.9813 64.3957 268° West  Level Estimated
Sat 06:19:00 AM 72.9756 63.9734 268° West  Level Estimated
Sat 06:20:00 AM 72.9690 63.5514 267° West  Level Estimated
Sat 06:21:00 AM 72.9615 63.1297 267° West  Level Estimated
Sat 06:22:00 AM 72.9532 62.7084 266° West  Level Estimated
Sat 06:23:00 AM 72.9440 62.2876 266° West  Level Estimated
Sat 06:24:00 AM 72.9340 61.8672 266° West  Level Estimated
Sat 06:25:00 AM 72.9231 61.4473 265° West  Level Estimated
Sat 06:26:00 AM 72.9113 61.0279 265° West  Level Estimated
Sat 06:27:00 AM 72.8986 60.6091 264° West  Level Estimated
Sat 06:28:00 AM 72.8851 60.1910 264° West  Level Estimated
Sat 06:29:00 AM 72.8708 59.7735 264° West  Level Estimated
Sat 06:30:00 AM 72.8556 59.3567 263° West  Level Estimated
Sat 06:31:00 AM 72.8395 58.9406 263° West  Level Estimated
Sat 06:32:00 AM 72.8226 58.5253 262° West  Level Estimated
Sat 06:33:00 AM 72.8048 58.1108 262° West  Level Estimated
Sat 06:34:00 AM 72.7862 57.6972 262° West  Level Estimated
Sat 06:35:00 AM 72.7668 57.2845 261° West  Level Estimated
Sat 06:36:00 AM 72.7465 56.8726 261° West  Level Estimated
Sat 06:37:00 AM 72.7254 56.4618 260° West  Level Estimated
Sat 06:38:00 AM 72.7034 56.0519 260° West  Level Estimated
Sat 06:39:00 AM 72.6806 55.6431 260° West  Level Estimated
Sat 06:40:00 AM 72.6570 55.2353 259° West  Level Estimated
Sat 06:41:00 AM 72.6326 54.8286 259° West  Level Estimated
Sat 06:42:00 AM 72.6073 54.4230 258° West  Level Estimated
Sat 06:43:00 AM 72.5812 54.0186 258° West  Level Estimated
Sat 06:44:00 AM 72.5543 53.6154 258° West  Level Estimated
Sat 06:45:00 AM 72.5266 53.2134 257° West  Level Estimated
Sat 06:46:00 AM 72.4981 52.8126 257° West  Level Estimated
Sat 06:47:00 AM 72.4688 52.4132 256° West  Level Estimated
Sat 06:48:00 AM 72.4387 52.0150 256° West  Level Estimated
Sat 06:49:00 AM 72.4078 51.6182 256° West  Level Estimated
Sat 06:50:00 AM 72.3762 51.2227 255° West  Level Estimated
Sat 06:51:00 AM 72.3437 50.8287 255° West  Level Estimated
Sat 06:52:00 AM 72.3104 50.4360 255° West  Level Estimated
Sat 06:53:00 AM 72.2764 50.0448 254° West  Level Estimated
Sat 06:54:00 AM 72.2416 49.6551 254° West  Level Estimated
Sat 06:55:00 AM 72.2060 49.2668 253° West  Level Estimated
Sat 06:56:00 AM 72.1697 48.8801 253° West  Level Estimated
Sat 06:57:00 AM 72.1326 48.4949 253° West  Level Estimated
Sat 06:58:00 AM 72.0947 48.1107 252° West  Level Estimated
Sat 06:59:00 AM 72.0561 47.7281 252° West  Level Estimated
Sat 07:00:00 AM 72.0167 47.3471 252° West  Level Estimated
Sat 07:01:00 AM 71.9766 46.9678 251° West  Level Estimated
Sat 07:02:00 AM 71.9357 46.5900 251° West  Level Estimated
Sat 07:03:00 AM 71.8941 46.2140 251° West  Level Estimated
Sat 07:04:00 AM 71.8518 45.8396 250° West  Level Estimated
Sat 07:05:00 AM 71.8087 45.4669 250° West  Level Estimated
Sat 07:06:00 AM 71.7650 45.0960 249° West  Level Estimated
Sat 07:07:00 AM 71.7205 44.7267 249° West  Level Estimated
Sat 07:08:00 AM 71.6753 44.3592 249° West  Level Estimated
Sat 07:09:00 AM 71.6295 43.9935 248° West  Level Estimated
Sat 07:10:00 AM 71.5829 43.6295 248° West  Level Estimated
Sat 07:11:00 AM 71.5356 43.2674 248° West  Level Estimated
Sat 07:12:00 AM 71.4877 42.9070 247° West  Level Estimated
Sat 07:13:00 AM 71.4391 42.5484 247° West  Level Estimated
Sat 07:14:00 AM 71.3898 42.1917 247° West  Level Estimated
Sat 07:15:00 AM 71.3398 41.8367 246° West  Level Estimated
Sat 07:16:00 AM 71.2892 41.4837 246° West  Level Estimated
Sat 07:17:00 AM 71.2379 41.1324 246° West  Level Estimated
Sat 07:18:00 AM 71.1860 40.7831 245° Southwest  Level Estimated
Sat 07:19:00 AM 71.1334 40.4356 245° Southwest  Level Estimated
Sat 07:20:00 AM 71.0802 40.0904 245° Southwest  Level Estimated
Sat 07:21:00 AM 71.0265 39.7472 244° Southwest  Level Estimated
Sat 07:22:00 AM 70.9720 39.4058 244° Southwest  Level Estimated
Sat 07:23:00 AM 70.9170 39.0663 244° Southwest  Level Estimated
Sat 07:24:00 AM 70.8614 38.7287 243° Southwest  Level Estimated
Sat 07:25:00 AM 70.8051 38.3930 243° Southwest  Level Estimated
Sat 07:26:00 AM 70.7482 38.0592 243° Southwest  Level Estimated
Sat 07:27:00 AM 70.6907 37.7272 242° Southwest  Level Estimated
Sat 07:28:00 AM 70.6327 37.3973 242° Southwest  Level Estimated
Sat 07:29:00 AM 70.5740 37.0691 242° Southwest  Level Estimated
Sat 07:30:00 AM 70.5147 36.7430 242° Southwest  Level Estimated
Sat 07:31:00 AM 70.4549 36.4187 241° Southwest  Level Estimated
Sat 07:32:00 AM 70.3945 36.0963 241° Southwest  Level Estimated
Sat 07:33:00 AM 70.3335 35.7759 241° Southwest  Level Estimated
Sat 07:34:00 AM 70.2719 35.4569 240° Southwest  Level Estimated
Sat 07:35:00 AM 70.2097 35.1398 240° Southwest  Level Estimated
Sat 07:36:00 AM 70.1470 34.8246 240° Southwest  Level Estimated
Sat 07:37:00 AM 70.0837 34.5114 239° Southwest  Level Estimated
Sat 07:38:00 AM 70.0198 34.2000 239° Southwest  Level Estimated
Sat 07:39:00 AM 69.9554 33.8906 239° Southwest  Level Estimated
Sat 07:40:00 AM 69.8905 33.5831 239° Southwest  Level Estimated
Sat 07:41:00 AM 69.8251 33.2775 238° Southwest  Level Estimated
Sat 07:42:00 AM 69.7591 32.9737 238° Southwest  Level Estimated
Sat 07:43:00 AM 69.6926 32.6719 238° Southwest  Level Estimated
Sat 07:44:00 AM 69.6256 32.3720 237° Southwest  Level Estimated
Sat 07:44:12 AM 65.2880 30.9790 237° Southwest 435 501 36,000  Level FlightAware ADS-B
Sat 07:44:52 AM 65.2460 30.8160 238° Southwest 435 501 36,000  Level FlightAware ADS-B
Sat 07:45:37 AM 65.1980 30.6260 239° Southwest 435 501 36,000  Level FlightAware ADS-B
Sat 07:46:17 AM 65.1590 30.4760 238° Southwest 436 502 36,000  Level FlightAware ADS-B
Sat 07:47:02 AM 65.1130 30.2950 239° Southwest 434 499 36,000  Level FlightAware ADS-B
Sat 07:47:42 AM 65.0700 30.1300 238° Southwest 432 497 36,000  Level FlightAware ADS-B
Sat 07:48:22 AM 65.0290 29.9760 238° Southwest 433 498 36,000  Level FlightAware ADS-B
Sat 07:49:07 AM 64.9810 29.7960 238° Southwest 432 497 36,000  Level FlightAware ADS-B
Sat 07:49:47 AM 64.9360 29.6270 238° Southwest 432 497 36,000  Level FlightAware ADS-B
Sat 07:50:27 AM 64.8920 29.4660 237° Southwest 434 499 36,000  Level FlightAware ADS-B
Sat 07:51:12 AM 64.8430 29.2920 237° Southwest 437 503 36,000  Level FlightAware ADS-B
Sat 07:51:52 AM 64.8010 29.1440 236° Southwest 438 504 36,000  Level FlightAware ADS-B
Sat 07:52:37 AM 64.7490 28.9600 237° Southwest 439 505 36,000  Level FlightAware ADS-B
Sat 07:53:17 AM 64.7040 28.8030 236° Southwest 434 499 36,000  Level FlightAware ADS-B
Sat 07:54:02 AM 64.6530 28.6270 236° Southwest 432 497 36,000  Level FlightAware ADS-B
Sat 07:54:42 AM 64.6100 28.4780 236° Southwest 434 499 36,000  Level FlightAware ADS-B
Sat 07:55:22 AM 64.5660 28.3260 236° Southwest 434 499 36,000  Level FlightAware ADS-B
Sat 07:56:07 AM 64.5110 28.1400 236° Southwest 437 503 36,000  Level FlightAware ADS-B
Sat 07:56:47 AM 64.4680 27.9940 236° Southwest 439 505 36,000  Level FlightAware ADS-B
Sat 07:57:32 AM 64.4160 27.8220 235° Southwest 437 503 36,000  Level FlightAware ADS-B
Sat 07:58:12 AM 64.3710 27.6720 235° Southwest 433 498 36,000  Level FlightAware ADS-B
Sat 07:58:52 AM 64.3230 27.5140 235° Southwest 432 497 36,000  Level FlightAware ADS-B
Sat 07:59:37 AM 64.2710 27.3410 235° Southwest 431 496 36,000  Level FlightAware ADS-B
Sat 08:00:17 AM 64.2260 27.1950 235° Southwest 431 496 36,000  Level FlightAware ADS-B
Sat 08:01:02 AM 64.1730 27.0230 235° Southwest 428 493 36,000  Level FlightAware ADS-B
Sat 08:01:42 AM 64.1270 26.8780 234° Southwest 426 490 36,000  Level FlightAware ADS-B
Sat 08:02:22 AM 64.0820 26.7320 235° Southwest 424 488 36,000  Level FlightAware ADS-B
Sat 08:03:07 AM 64.0310 26.5710 234° Southwest 425 489 36,000  Level FlightAware ADS-B
Sat 08:03:47 AM 63.9850 26.4260 234° Southwest 427 491 36,000  Level FlightAware ADS-B
Sat 08:04:27 AM 63.9370 26.2780 234° Southwest 426 490 36,000  Level FlightAware ADS-B
Sat 08:05:12 AM 63.8870 26.1200 234° Southwest 426 490 36,000  Level FlightAware ADS-B
Sat 08:05:52 AM 63.8400 25.9770 233° Southwest 425 489 36,000  Level FlightAware ADS-B
Sat 08:06:37 AM 63.7860 25.8120 234° Southwest 426 490 36,000  Level FlightAware ADS-B
Sat 08:07:17 AM 63.7390 25.6690 233° Southwest 427 491 36,000  Level FlightAware ADS-B
Sat 08:08:02 AM 63.6880 25.5130 234° Southwest 429 494 36,000  Level FlightAware ADS-B
Sat 08:08:42 AM 63.6400 25.3690 233° Southwest 430 495 36,000  Level FlightAware ADS-B
Sat 08:09:37 AM 63.5750 25.1770 233° Southwest 430 495 36,000  Level FlightAware ADS-B
Sat 08:10:22 AM 63.5210 25.0180 233° Southwest 430 495 36,000  Level FlightAware ADS-B
Sat 08:11:02 AM 63.4730 24.8760 233° Southwest 431 496 36,000  Level FlightAware ADS-B
Sat 08:11:42 AM 63.4230 24.7290 233° Southwest 430 495 36,000  Level FlightAware ADS-B
Sat 08:12:27 AM 63.3700 24.5750 233° Southwest 428 493 36,000  Level FlightAware ADS-B
Sat 08:13:07 AM 63.3230 24.4400 232° Southwest 426 490 36,000  Level FlightAware ADS-B
Sat 08:14:02 AM 63.2550 24.2460 232° Southwest 423 487 36,000  Level FlightAware ADS-B
Sat 08:14:47 AM 63.2000 24.0900 232° Southwest 425 489 36,000  Level FlightAware ADS-B
Sat 08:15:27 AM 63.1510 23.9510 232° Southwest 426 490 36,000  Level FlightAware ADS-B
Sat 08:16:07 AM 63.1010 23.8130 231° Southwest 425 489 36,000  Level FlightAware ADS-B
Sat 08:16:52 AM 63.0460 23.6590 232° Southwest 426 490 36,000  Level FlightAware ADS-B
Sat 08:17:32 AM 62.9960 23.5210 231° Southwest 427 491 36,000  Level FlightAware ADS-B
Sat 08:18:12 AM 62.9460 23.3840 231° Southwest 426 490 36,000  Level FlightAware ADS-B
Sat 08:18:57 AM 62.8900 23.2310 231° Southwest 430 495 36,000  Level FlightAware ADS-B
Sat 08:19:37 AM 62.8400 23.0960 231° Southwest 430 495 36,000  Level FlightAware ADS-B
Sat 08:20:22 AM 62.7840 22.9440 231° Southwest 433 498 36,000  Level FlightAware ADS-B
Sat 08:21:02 AM 62.7330 22.8080 231° Southwest 434 499 36,000  Level FlightAware ADS-B
Sat 08:21:42 AM 62.6830 22.6730 231° Southwest 434 499 36,000  Level FlightAware ADS-B
Sat 08:24:00 AM 62.5334 22.1467 239° Southwest  Level Estimated
Sat 08:25:00 AM 62.4677 21.9195 238° Southwest  Level Estimated
Sat 08:26:00 AM 62.4017 21.6934 238° Southwest  Level Estimated
Sat 08:27:00 AM 62.3353 21.4682 238° Southwest  Level Estimated
Sat 08:28:00 AM 62.2685 21.2440 237° Southwest  Level Estimated
Sat 08:28:27 AM 62.1680 21.3460 237° Southwest 425 489 36,000  Level FlightAware ADS-B
Sat 08:29:12 AM 62.1110 21.2030 230° Southwest 421 484 36,000  Level FlightAware ADS-B
Sat 08:29:52 AM 62.0610 21.0810 229° Southwest 419 482 36,000  Level FlightAware ADS-B
Sat 08:30:37 AM 62.0030 20.9370 229° Southwest 420 483 36,000  Level FlightAware ADS-B
Sat 08:31:17 AM 61.9520 20.8130 229° Southwest 421 484 36,000  Level FlightAware ADS-B
Sat 08:32:02 AM 61.8950 20.6730 229° Southwest 421 484 36,000  Level FlightAware ADS-B
Sat 08:32:42 AM 61.8440 20.5490 229° Southwest 421 484 36,000  Level FlightAware ADS-B
Sat 08:33:22 AM 61.7940 20.4230 230° Southwest 414 476 36,000  Level FlightAware ADS-B
Sat 08:36:00 AM 61.6163 19.8467 237° Southwest  Level Estimated
Sat 08:37:00 AM 61.5482 19.6296 237° Southwest  Level Estimated
Sat 08:38:00 AM 61.4798 19.4134 237° Southwest  Level Estimated
Sat 08:39:00 AM 61.4110 19.1982 236° Southwest  Level Estimated
Sat 08:39:57 AM 61.3190 19.1630 236° Southwest 418 481 36,000  Level FlightAware ADS-B
Sat 08:40:00 AM 61.3418 18.9840 236° Southwest  Level Estimated
Sat 08:41:32 AM 61.2030 18.8660 231° Southwest 420 483 36,000  Level FlightAware ADS-B
Sat 08:42:17 AM 61.1480 18.7270 231° Southwest 422 486 36,000  Level FlightAware ADS-B
Sat 08:42:57 AM 61.0970 18.5970 231° Southwest 422 486 36,000  Level FlightAware ADS-B
Sat 08:43:42 AM 61.0430 18.4610 231° Southwest 421 484 36,000  Level FlightAware ADS-B
Sat 08:44:22 AM 60.9930 18.3350 231° Southwest 421 484 36,000  Level FlightAware ADS-B
Sat 08:45:02 AM 60.9440 18.2130 230° Southwest 422 486 36,000  Level FlightAware ADS-B
Sat 08:45:47 AM 60.8870 18.0720 230° Southwest 424 488 36,000  Level FlightAware ADS-B
Sat 08:46:27 AM 60.8390 17.9520 231° Southwest 424 488 36,000  Level FlightAware ADS-B
Sat 08:47:07 AM 60.7890 17.8310 230° Southwest 424 488 36,000  Level FlightAware ADS-B
Sat 08:47:52 AM 60.7310 17.6880 230° Southwest 425 489 36,000  Level FlightAware ADS-B
Sat 08:48:32 AM 60.6820 17.5690 230° Southwest 425 489 36,000  Level FlightAware ADS-B
Sat 08:49:17 AM 60.6230 17.4270 230° Southwest 426 490 36,000  Level FlightAware ADS-B
Sat 08:49:57 AM 60.5740 17.3110 229° Southwest 428 493 36,000  Level FlightAware ADS-B
Sat 08:50:37 AM 60.5210 17.1840 230° Southwest 428 493 36,000  Level FlightAware ADS-B
Sat 08:51:22 AM 60.4630 17.0460 230° Southwest 429 494 36,000  Level FlightAware ADS-B
Sat 08:52:02 AM 60.4130 16.9270 230° Southwest 430 495 36,000  Level FlightAware ADS-B
Sat 08:52:47 AM 60.3540 16.7900 229° Southwest 429 494 36,000  Level FlightAware ADS-B
Sat 08:53:27 AM 60.3020 16.6690 229° Southwest 430 495 36,000  Level FlightAware ADS-B
Sat 08:54:12 AM 60.2450 16.5350 229° Southwest 430 495 36,000  Level FlightAware ADS-B
Sat 08:54:52 AM 60.1900 16.4100 229° Southwest 432 497 36,000  Level FlightAware ADS-B
Sat 08:55:32 AM 60.1400 16.2940 229° Southwest 433 498 36,000  Level FlightAware ADS-B
Sat 08:56:17 AM 60.0800 16.1580 229° Southwest 433 498 36,000  Level FlightAware ADS-B
Sat 08:56:57 AM 60.0270 16.0380 229° Southwest 434 499 36,000  Level FlightAware ADS-B
Sat 08:57:37 AM 59.9730 15.9160 229° Southwest 434 499 36,000  Level FlightAware ADS-B
Sat 08:58:22 AM 59.9120 15.7800 228° Southwest 433 498 36,000  Level FlightAware ADS-B
Sat 08:59:02 AM 59.8590 15.6610 228° Southwest 436 502 36,000  Level FlightAware ADS-B
Sat 08:59:47 AM 59.7990 15.5280 228° Southwest 436 502 36,000  Level FlightAware ADS-B
Sat 09:00:27 AM 59.7460 15.4110 228° Southwest 438 504 36,000  Level FlightAware ADS-B
Sat 09:01:07 AM 59.6920 15.2920 228° Southwest 438 504 36,000  Level FlightAware ADS-B
Sat 09:01:52 AM 59.6290 15.1560 228° Southwest 436 502 36,000  Level FlightAware ADS-B
Sat 09:02:32 AM 59.5780 15.0450 228° Southwest 436 502 36,000  Level FlightAware ADS-B
Sat 09:03:17 AM 59.5170 14.9130 228° Southwest 436 502 36,000  Level FlightAware ADS-B
Sat 09:03:57 AM 59.4620 14.7950 227° Southwest 439 505 36,000  Level FlightAware ADS-B
Sat 09:04:37 AM 59.4090 14.6810 228° Southwest 443 510 36,000  Level FlightAware ADS-B
Sat 09:05:22 AM 59.3440 14.5440 227° Southwest 442 509 36,000  Level FlightAware ADS-B
Sat 09:06:02 AM 59.2900 14.4290 227° Southwest 443 510 36,000  Level FlightAware ADS-B
Sat 09:06:47 AM 59.2270 14.2960 227° Southwest 445 512 36,000  Level FlightAware ADS-B
Sat 09:07:27 AM 59.1710 14.1790 227° Southwest 446 513 36,000  Level FlightAware ADS-B
Sat 09:08:12 AM 59.1110 14.0550 227° Southwest 447 514 36,000  Level FlightAware ADS-B
Sat 09:08:52 AM 59.0530 13.9340 227° Southwest 447 514 36,000  Level FlightAware ADS-B
Sat 09:09:32 AM 58.9980 13.8100 229° Southwest 442 509 36,000  Level FlightAware ADS-B
Sat 09:10:17 AM 58.9410 13.6670 232° Southwest 441 507 36,000  Level FlightAware ADS-B
Sat 09:10:57 AM 58.8930 13.5410 234° Southwest 442 509 36,000  Level FlightAware ADS-B
Sat 09:11:37 AM 58.8450 13.4140 234° Southwest 442 509 36,000  Level FlightAware ADS-B
Sat 09:12:22 AM 58.7910 13.2730 234° Southwest 444 511 36,000  Level FlightAware ADS-B
Sat 09:13:07 AM 58.7340 13.1280 233° Southwest 446 513 36,000  Level FlightAware ADS-B
Sat 09:13:47 AM 58.6840 13.0010 233° Southwest 448 516 36,000  Level FlightAware ADS-B
Sat 09:14:32 AM 58.6280 12.8590 233° Southwest 448 516 36,000  Level FlightAware ADS-B
Sat 09:15:12 AM 58.5810 12.7410 233° Southwest 447 514 36,000  Level FlightAware ADS-B
Sat 09:15:57 AM 58.5220 12.5940 232° Southwest 445 512 36,000  Level FlightAware ADS-B
Sat 09:16:37 AM 58.4750 12.4760 233° Southwest 445 512 36,000  Level FlightAware ADS-B
Sat 09:17:17 AM 58.4220 12.3450 232° Southwest 444 511 36,000  Level FlightAware ADS-B
Sat 09:18:02 AM 58.3690 12.2150 232° Southwest 446 513 36,000  Level FlightAware ADS-B
Sat 09:18:42 AM 58.3160 12.0850 232° Southwest 442 509 36,000  Level FlightAware ADS-B
Sat 09:19:22 AM 58.2630 11.9560 232° Southwest 443 510 36,000  Level FlightAware ADS-B
Sat 09:20:07 AM 58.2060 11.8180 232° Southwest 442 509 36,000  Level FlightAware ADS-B
Sat 09:20:47 AM 58.1570 11.6990 232° Southwest 441 507 36,000  Level FlightAware ADS-B
Sat 09:21:32 AM 58.1020 11.5660 232° Southwest 439 505 36,000  Level FlightAware ADS-B
Sat 09:22:12 AM 58.0520 11.4480 231° Southwest 439 505 36,000  Level FlightAware ADS-B
Sat 09:22:52 AM 57.9990 11.3220 232° Southwest 439 505 36,000  Level FlightAware ADS-B
Sat 09:23:37 AM 57.9440 11.1920 231° Southwest 439 505 36,000  Level FlightAware ADS-B
Sat 09:24:17 AM 57.8930 11.0740 231° Southwest 439 505 36,000  Level FlightAware ADS-B
Sat 09:25:02 AM 57.8380 10.9450 231° Southwest 439 505 36,000  Level FlightAware ADS-B
Sat 09:25:42 AM 57.7830 10.8170 231° Southwest 439 505 36,000  Level FlightAware ADS-B
Sat 09:26:22 AM 57.7320 10.7000 231° Southwest 440 506 36,000  Level FlightAware ADS-B
Sat 09:27:07 AM 57.6750 10.5690 231° Southwest 442 509 36,000  Level FlightAware ADS-B
Sat 09:27:47 AM 57.6260 10.4570 231° Southwest 442 509 36,000  Level FlightAware ADS-B
Sat 09:28:32 AM 57.5680 10.3240 231° Southwest 442 509 36,000  Level FlightAware ADS-B
Sat 09:29:07 AM 57.5220 10.2200 231° Southwest 443 510 36,000  Level FlightAware ADS-B
Sat 09:29:57 AM 57.4560 10.0720 230° Southwest 443 510 36,000  Level FlightAware ADS-B
Sat 09:30:37 AM 57.4040 9.9570 230° Southwest 443 510 36,000  Level FlightAware ADS-B
Sat 09:31:17 AM 57.3520 9.8410 230° Southwest 443 510 36,000  Level FlightAware ADS-B
Sat 09:31:57 AM 57.3010 9.7260 231° Southwest 440 506 36,000  Level FlightAware ADS-B
Sat 09:32:42 AM 57.2420 9.5960 230° Southwest 440 506 36,000  Level FlightAware ADS-B
Sat 09:33:22 AM 57.1880 9.4770 230° Southwest 440 506 36,000  Level FlightAware ADS-B
Sat 09:34:07 AM 57.1290 9.3490 230° Southwest 440 506 36,000  Level FlightAware ADS-B
Sat 09:34:47 AM 57.0760 9.2340 230° Southwest 442 509 36,000  Level FlightAware ADS-B
Sat 09:35:27 AM 57.0230 9.1190 230° Southwest 444 511 36,000  Level FlightAware ADS-B
Sat 09:36:17 AM 56.9560 8.9760 229° Southwest 446 513 36,000  Level FlightAware ADS-B
Sat 09:36:57 AM 56.9020 8.8610 229° Southwest 447 514 36,000  Level FlightAware ADS-B
Sat 09:37:37 AM 56.8490 8.7480 229° Southwest 448 516 36,000  Level FlightAware ADS-B
Sat 09:38:22 AM 56.7900 8.6230 229° Southwest 451 519 36,000  Level FlightAware ADS-B
Sat 09:39:02 AM 56.7350 8.5070 229° Southwest 454 522 36,000  Level FlightAware ADS-B
Sat 09:39:47 AM 56.6720 8.3750 229° Southwest 455 524 36,000  Level FlightAware ADS-B
Sat 09:40:27 AM 56.6160 8.2580 229° Southwest 457 526 36,000  Level FlightAware ADS-B
Sat 09:41:07 AM 56.5610 8.1440 229° Southwest 458 527 36,000  Level FlightAware ADS-B
Sat 09:41:52 AM 56.4970 8.0130 229° Southwest 459 528 36,000  Level FlightAware ADS-B
Sat 09:42:32 AM 56.4410 7.8980 229° Southwest 459 528 36,000  Level FlightAware ADS-B
Sat 09:43:17 AM 56.3790 7.7710 229° Southwest 460 529 36,000  Level FlightAware ADS-B
Sat 09:43:57 AM 56.3220 7.6550 228° Southwest 461 531 36,000  Level FlightAware ADS-B
Sat 09:44:37 AM 56.2650 7.5410 228° Southwest 461 531 36,000  Level FlightAware ADS-B
Sat 09:45:22 AM 56.2030 7.4160 228° Southwest 461 531 36,000  Level FlightAware ADS-B
Sat 09:46:02 AM 56.1470 7.3030 228° Southwest 460 529 36,000  Level FlightAware ADS-B
Sat 09:46:42 AM 56.0880 7.1860 228° Southwest 462 532 36,000  Level FlightAware ADS-B
Sat 09:47:27 AM 56.0240 7.0600 228° Southwest 463 533 36,000  Level FlightAware ADS-B
Sat 09:48:07 AM 55.9660 6.9450 228° Southwest 463 533 36,000  Level FlightAware ADS-B
Sat 09:48:52 AM 55.9020 6.8200 228° Southwest 465 535 36,000  Level FlightAware ADS-B
Sat 09:49:32 AM 55.8450 6.7090 228° Southwest 466 536 36,000 -1,823 Level FlightAware ADS-B
Sat 09:50:11 AM 55.7800 6.5970 228° Southwest 1 1 33,600 -1,350 Descending FlightAware UK
Sat 09:50:12 AM 55.7840 6.5900 228° Southwest 468 539 35,100 -2,000 Climbing FlightAware ADS-B
Sat 09:50:29 AM 55.7573 6.5418 228° Southwest 1 1 33,000 -3,805 Descending FlightAware UK
Sat 09:50:53 AM 55.7230 6.4718 229° Southwest 1 1 32,500 2,143 Descending FlightAware UK
Sat 09:50:57 AM 55.7190 6.4650 229° Southwest 473 544 34,000 -1,200 Climbing FlightAware ADS-B
Sat 09:51:23 AM 55.6777 6.3876 229° Southwest 1 1 31,900 -1,200 Descending FlightAware UK
Sat 09:51:37 AM 55.6610 6.3530 229° Southwest 474 545 33,200 -714 Climbing FlightAware ADS-B
Sat 09:53:29 AM 55.4916 6.0294 229° Southwest 1 1 30,400 -1,292 Descending FlightAware UK
Sat 09:53:47 AM 55.4651 5.9789 227° Southwest 1 1 30,400  Level FlightAware UK
Sat 09:54:05 AM 55.4386 5.9283 227° Southwest 1 1 30,400  Level FlightAware UK
Sat 09:55:17 AM 55.3316 5.7278 227° Southwest 464 534 30,400 67 Level FlightAware UK
Sat 09:55:35 AM 55.3047 5.6777 227° Southwest 464 534 30,500  Climbing FlightAware UK
Sat 09:56:11 AM 55.2514 5.5767 227° Southwest 466 536 30,400  Descending FlightAware UK
Sat 09:57:59 AM 55.0878 5.2764 226° Southwest 466 536 30,500  Climbing FlightAware UK
Sat 09:58:17 AM 55.0603 5.2266 226° Southwest 464 534 30,400 -143 Descending FlightAware UK
Sat 09:58:41 AM 55.0236 5.1602 226° Southwest 464 534 30,400  Level FlightAware UK
Sat 09:59:47 AM 54.9235 4.9771 226° Southwest 464 534 30,400 596 Level FlightAware UK
Sat 10:01:22 AM 54.7840 4.7280 226° Southwest 482 555 32,000 686 Climbing FlightAware ADS-B
Sat 10:02:07 AM 54.7120 4.6010 226° Southwest 482 555 32,000 -1,129 Level FlightAware ADS-B
Sat 10:02:47 AM 54.6447 4.4803 226° Southwest 464 534 30,400  Descending FlightAware UK
Sat 10:02:47 AM 54.6510 4.4930 226° Southwest 483 556 32,000  Climbing FlightAware ADS-B
Sat 10:03:29 AM 54.5721 4.3764 226° Southwest 464 534 30,400  Descending FlightAware UK
Sat 10:03:32 AM 54.5740 4.3790 226° Southwest 486 559 32,000  Climbing FlightAware ADS-B
Sat 10:03:53 AM 54.5235 4.3311 226° Southwest 464 534 30,400  Descending FlightAware UK
Sat 10:04:12 AM 54.4920 4.3020 226° Southwest 496 571 32,000 1,627 Climbing FlightAware ADS-B
Sat 10:04:52 AM 54.4160 4.2330 208° Southwest 489 563 32,000 -1,385 Level FlightAware ADS-B
Sat 10:05:17 AM 54.3533 4.1772 208° Southwest 462 532 30,500  Descending FlightAware UK
Sat 10:05:37 AM 54.3270 4.1530 208° Southwest 489 563 32,000  Climbing FlightAware ADS-B
Sat 10:05:53 AM 54.2807 4.1116 208° Southwest 462 532 30,500  Descending FlightAware UK
Sat 10:06:17 AM 54.2390 4.0740 208° Southwest 488 562 32,000 1,406 Climbing FlightAware ADS-B
Sat 10:06:57 AM 54.1520 3.9970 208° Southwest 495 570 32,000 -2,143 Level FlightAware ADS-B
Sat 10:06:59 AM 54.1472 3.9921 208° Southwest 462 532 30,500 -2,813 Descending FlightAware UK
Sat 10:07:29 AM 54.0863 3.9380 208° Southwest 460 529 30,500 2,093 Level FlightAware UK
Sat 10:07:42 AM 54.0640 3.9180 208° Southwest 497 572 32,000  Climbing FlightAware ADS-B
Sat 10:08:11 AM 54.0007 3.8626 208° Southwest 460 529 30,500  Descending FlightAware UK
Sat 10:08:22 AM 53.9830 3.8460 208° Southwest 498 573 32,000  Climbing FlightAware ADS-B
Sat 10:08:59 AM 53.9027 3.7763 208° Southwest 462 532 30,500  Descending FlightAware UK
Sat 10:09:07 AM 53.8980 3.7720 208° Southwest 499 574 32,000  Climbing FlightAware ADS-B
Sat 10:09:23 AM 53.8536 3.7331 208° Southwest 460 529 30,500 -2,647 Descending FlightAware UK
Sat 10:09:41 AM 53.8168 3.7007 207° Southwest 460 529 30,500 3,750 Level FlightAware UK
Sat 10:09:47 AM 53.8140 3.6980 207° Southwest 500 575 32,000  Climbing FlightAware ADS-B
Sat 10:10:17 AM 53.7429 3.6363 207° Southwest 458 527 30,500  Descending FlightAware UK
Sat 10:10:22 AM 53.7480 3.6410 207° Southwest 500 575 32,000 -200 Climbing FlightAware ADS-B
Sat 10:10:47 AM 53.6815 3.5828 207° Southwest 460 529 30,400 -1,959 Descending FlightAware UK
Sat 10:11:11 AM 53.6318 3.5398 207° Southwest 460 529 30,400 2,400 Level FlightAware UK
Sat 10:11:27 AM 53.6100 3.5210 207° Southwest 504 580 32,000 125 Climbing FlightAware ADS-B
Sat 10:11:59 AM 53.5322 3.4538 207° Southwest 460 529 30,500  Descending FlightAware UK
Sat 10:12:02 AM 53.5280 3.4500 207° Southwest 506 582 32,000  Climbing FlightAware ADS-B
Sat 10:12:29 AM 53.4697 3.3999 207° Southwest 458 527 30,500  Descending FlightAware UK
Sat 10:12:52 AM 53.4300 3.3660 207° Southwest 507 583 32,000 -143 Climbing FlightAware ADS-B
Sat 10:13:11 AM 53.3820 3.3250 207° Southwest 460 529 30,400  Descending FlightAware UK
Sat 10:13:32 AM 53.3400 3.2890 207° Southwest 510 587 32,000 143 Climbing FlightAware ADS-B
Sat 10:13:53 AM 53.2938 3.2499 207° Southwest 460 529 30,500  Descending FlightAware UK
Sat 10:14:07 AM 53.2720 3.2310 207° Southwest 511 588 32,000 -167 Climbing FlightAware ADS-B
Sat 10:14:29 AM 53.2181 3.1856 207° Southwest 462 532 30,400  Descending FlightAware UK
Sat 10:14:57 AM 53.1630 3.1380 207° Southwest 510 587 32,000 125 Climbing FlightAware ADS-B
Sat 10:15:17 AM 53.1170 3.1003 207° Southwest 460 529 30,500  Descending FlightAware UK
Sat 10:15:32 AM 53.0910 3.0780 207° Southwest 510 587 32,000 1,500 Climbing FlightAware ADS-B
Sat 10:16:17 AM 52.9930 2.9960 207° Southwest 512 589 32,000  Level FlightAware ADS-B
Sat 10:17:02 AM 52.9010 2.9190 207° Southwest 511 588 32,000  Level FlightAware ADS-B
Sat 10:17:42 AM 52.8150 2.8480 207° Southwest 512 589 32,000  Level FlightAware ADS-B
Sat 10:18:27 AM 52.7170 2.7670 207° Southwest 513 590 32,000  Level FlightAware ADS-B
Sat 10:19:07 AM 52.6390 2.7020 207° Southwest 512 589 32,000 -1,714 Level FlightAware ADS-B
Sat 10:19:23 AM 52.5977 2.6679 207° Southwest 464 534 30,400  Descending FlightAware UK
Sat 10:19:52 AM 52.5430 2.6230 207° Southwest 510 587 32,000  Climbing FlightAware ADS-B
Sat 10:20:10 AM 52.4972 2.5847 207° Southwest 460 529 30,400 -2,432 Descending FlightAware UK
Sat 10:20:29 AM 52.4594 2.5519 208° Southwest 456 525 30,500 4,364 Climbing FlightAware UK
Sat 10:20:32 AM 52.4570 2.5490 208° Southwest 512 589 32,000  Climbing FlightAware ADS-B
Sat 10:20:58 AM 52.3973 2.4977 208° Southwest 458 527 30,500  Descending FlightAware UK
Sat 10:21:12 AM 52.3710 2.4750 208° Southwest 513 590 32,000 4,091 Climbing FlightAware ADS-B
Sat 10:21:20 AM 52.3516 2.4588 207° Southwest 513 590 32,000 -2,824 Level FlightAware ADS-B
Sat 10:21:46 AM 52.2963 2.4118 207° Southwest 466 536 30,400  Descending FlightAware UK
Sat 10:21:57 AM 52.2800 2.3980 207° Southwest 509 586 32,000 143 Climbing FlightAware ADS-B
Sat 10:22:28 AM 52.2085 2.3380 207° Southwest 466 536 30,500  Descending FlightAware UK
Sat 10:22:37 AM 52.1990 2.3290 207° Southwest 505 581 32,000 -250 Climbing FlightAware ADS-B
Sat 10:22:52 AM 52.1589 2.2955 207° Southwest 466 536 30,400 -2,727 Descending FlightAware UK
Sat 10:23:10 AM 52.1233 2.2640 208° Southwest 466 536 30,500 3,840 Climbing FlightAware UK
Sat 10:23:17 AM 52.1150 2.2560 208° Southwest 497 572 32,000  Climbing FlightAware ADS-B
Sat 10:23:34 AM 52.0744 2.2214 208° Southwest 476 548 30,500 -2,743 Descending FlightAware UK
Sat 10:23:52 AM 52.0386 2.1892 209° Southwest 472 543 30,400 2,182 Descending FlightAware UK
Sat 10:24:07 AM 52.0130 2.1561 209° Southwest 486 559 31,700 -1,667 Climbing FlightAware ADS-B
Sat 10:24:28 AM 51.9781 2.1049 209° Southwest 444 511 29,400 -2,914 Descending FlightAware UK
Sat 10:24:42 AM 51.9630 2.0760 209° Southwest 471 542 30,000 -968 Climbing FlightAware ADS-B
Sat 10:24:59 AM 51.9369 2.0211 232° Southwest 472 543 28,900 -5,471 Descending FlightAware ADS-B
Sat 10:25:16 AM 51.9150 1.9734 232° Southwest 406 467 26,900 -2,000 Descending FlightAware UK
Sat 10:25:32 AM 51.8971 1.9334 232° Southwest 429 494 27,800 -2,500 Climbing FlightAware ADS-B
Sat 10:25:52 AM 51.8733 1.8820 232° Southwest 382 440 25,400 -2,057 Descending FlightAware UK
Sat 10:26:07 AM 51.8590 1.8510 232° Southwest 402 463 26,600 -1,667 Climbing FlightAware ADS-B
Sat 10:26:28 AM 51.8339 1.7965 232° Southwest 374 430 24,400 -3,692 Descending FlightAware UK
Sat 10:26:46 AM 51.8146 1.7549 233° Southwest 372 428 24,200 4,105 Descending FlightAware UK
Sat 10:26:47 AM 51.8170 1.7600 233° Southwest 384 442 25,700 -1,333 Climbing FlightAware ADS-B
Sat 10:27:04 AM 51.7955 1.7144 233° Southwest 364 419 23,800 -3,771 Descending FlightAware UK
Sat 10:27:22 AM 51.7768 1.6741 233° Southwest 370 426 23,500 2,571 Descending FlightAware UK
Sat 10:27:32 AM 51.7690 1.6580 233° Southwest 383 441 25,000 878 Climbing FlightAware ADS-B
Sat 10:28:03 AM 51.7460 1.5735 246° West 364 419 24,100 -3,214 Descending FlightAware ADS-B
Sat 10:28:28 AM 51.7405 1.5065 246° West 358 412 22,000 -1,313 Descending FlightAware UK
Sat 10:28:35 AM 51.7395 1.4896 246° West 353 406 23,400 1,538 Climbing FlightAware ADS-B
Sat 10:29:07 AM 51.7342 1.4058 264° West 348 400 23,000 -2,553 Descending FlightAware ADS-B
Sat 10:29:22 AM 51.7316 1.3668 264° West 350 403 21,400  Descending FlightAware UK
Sat 10:29:38 AM 51.7293 1.3259 264° West 347 399 23,000 -167 Climbing FlightAware ADS-B
Sat 10:29:58 AM 51.7261 1.2753 264° West 350 403 21,300 -1,000 Descending FlightAware UK
Sat 10:30:14 AM 51.7233 1.2353 264° West 343 395 22,400 -1,167 Climbing FlightAware ADS-B
Sat 10:30:34 AM 51.7198 1.1846 264° West 350 403 20,600 -1,125 Descending FlightAware UK
Sat 10:30:46 AM 51.7180 1.1561 264° West 334 384 21,800 857 Climbing FlightAware ADS-B
Sat 10:31:16 AM 51.7130 1.0825 264° West 328 377 21,200 -3,000 Descending FlightAware ADS-B
Sat 10:31:34 AM 51.7099 1.0385 264° West 346 398 19,400 -364 Descending FlightAware UK
Sat 10:31:49 AM 51.7074 1.0039 264° West 312 359 21,000 2,133 Climbing FlightAware ADS-B
Sat 10:32:19 AM 51.7028 0.9364 264° West 299 344 21,000 -1,882 Level FlightAware ADS-B
Sat 10:32:40 AM 51.6995 0.8900 264° West 318 366 19,400  Descending FlightAware UK
Sat 10:32:49 AM 51.6985 0.8701 264° West 299 344 21,000  Climbing FlightAware ADS-B
Sat 10:33:04 AM 51.6962 0.8370 264° West 320 368 19,400  Descending FlightAware UK
Sat 10:33:20 AM 51.6937 0.8011 264° West 301 346 21,000 167 Climbing FlightAware ADS-B
Sat 10:33:40 AM 51.6906 0.7570 264° West 320 368 19,500  Descending FlightAware UK
Sat 10:33:56 AM 51.6881 0.7224 264° West 301 346 21,000  Climbing FlightAware ADS-B
Sat 10:34:16 AM 51.6848 0.6770 264° West 320 368 19,500  Descending FlightAware UK
Sat 10:34:27 AM 51.6831 0.6525 264° West 300 345 21,000 2,143 Climbing FlightAware ADS-B
Sat 10:34:58 AM 51.6782 0.5850 263° West 301 346 21,000  Level FlightAware ADS-B
Sat 10:35:32 AM 51.6727 0.5091 263° West 301 346 21,000 -1,925 Level FlightAware ADS-B
Sat 10:35:51 AM 51.6694 0.4645 263° West 320 368 19,300 -364 Descending FlightAware UK
Sat 10:36:05 AM 51.6673 0.4354 263° West 306 352 20,800 -333 Climbing FlightAware ADS-B
Sat 10:36:27 AM 51.6633 0.3835 263° West 318 366 19,100 -400 Descending FlightAware UK
Sat 10:36:35 AM 51.6622 0.3673 263° West 303 349 20,600 1,737 Climbing FlightAware ADS-B
Sat 10:37:05 AM 51.6571 0.2990 263° West 302 348 20,200 -984 Descending FlightAware ADS-B
Sat 10:37:36 AM 51.6521 0.2315 263° West 300 345 19,600 -2,885 Descending FlightAware ADS-B
Sat 10:37:57 AM 51.6485 0.1839 263° West 314 361 17,700 -968 Descending FlightAware UK
Sat 10:38:07 AM 51.6470 0.1643 263° West 295 339 19,100 4,105 Climbing FlightAware ADS-B
Sat 10:38:16 AM 51.6451 0.1446 261° West 298 343 19,000 -923 Descending FlightAware ADS-B
Sat 10:38:20 AM 51.6431 0.1345 252° West 306 352 18,900 -1,091 Descending FlightAware ADS-B
Sat 10:38:27 AM 51.6393 0.1212 245° Southwest 313 360 18,800 -1,000 Descending FlightAware ADS-B
Sat 10:38:32 AM 51.6350 0.1099 238° Southwest 318 366 18,700 -1,200 Descending FlightAware ADS-B
Sat 10:38:37 AM 51.6305 0.1004 233° Southwest 323 372 18,600 -1,333 Descending FlightAware ADS-B
Sat 10:38:41 AM 51.6263 0.0931 227° Southwest 326 375 18,500 -600 Descending FlightAware ADS-B
Sat 10:38:47 AM 51.6205 0.0845 222° Southwest 331 381 18,500 -857 Level FlightAware ADS-B
Sat 10:38:55 AM 51.6102 0.0733 214° Southwest 341 392 18,300 -1,333 Descending FlightAware ADS-B
Sat 10:39:05 AM 51.5955 0.0639 202° Southwest 353 406 18,100 -750 Descending FlightAware ADS-B
Sat 10:39:11 AM 51.5859 0.0611 190° South 359 413 18,100 -462 Level FlightAware ADS-B
Sat 10:39:18 AM 51.5741 0.0610 180° South 363 418 18,000 -500 Descending FlightAware ADS-B
Sat 10:39:23 AM 51.5660 0.0629 172° South 366 421 18,000  Level FlightAware ADS-B
Sat 10:39:27 AM 51.5580 0.0665 164° South 367 422 18,000  Level FlightAware ADS-B
Sat 10:39:31 AM 51.5522 0.0703 158° South 368 423 18,000  Level FlightAware ADS-B
Sat 10:39:37 AM 51.5434 0.0782 151° Southeast 369 425 18,000  Level FlightAware ADS-B
Sat 10:39:41 AM 51.5380 0.0848 143° Southeast 369 425 18,000  Level FlightAware ADS-B
Sat 10:39:48 AM 51.5299 0.0980 135° Southeast 367 422 18,000  Level FlightAware ADS-B
Sat 10:39:54 AM 51.5242 0.1113 125° Southeast 363 418 18,000  Level FlightAware ADS-B
Sat 10:39:58 AM 51.5211 0.1210 117° Southeast 360 414 18,000  Level FlightAware ADS-B
Sat 10:40:05 AM 51.5175 0.1387 108° East 352 405 18,000  Level FlightAware ADS-B
Sat 10:40:09 AM 51.5163 0.1493 100° East 346 398 18,000  Level FlightAware ADS-B
Sat 10:40:16 AM 51.5159 0.1669 92° East 338 389 18,000  Level FlightAware ADS-B
Sat 10:40:20 AM 51.5166 0.1772 84° East 332 382 18,000  Level FlightAware ADS-B
Sat 10:40:35 AM 51.5204 0.2127 80° East 331 381 18,000 -2,432 Level FlightAware ADS-B
Sat 10:40:57 AM 51.5245 0.2673 80° East 308 354 16,500 -194 Descending FlightAware UK
Sat 10:41:06 AM 51.5260 0.2874 80° East 330 380 17,900 3,714 Climbing FlightAware ADS-B
Sat 10:41:18 AM 51.5291 0.3167 80° East 315 362 17,800 -353 Descending FlightAware ADS-B
Sat 10:41:23 AM 51.5316 0.3273 69° East 306 352 17,800 -429 Level FlightAware ADS-B
Sat 10:41:32 AM 51.5382 0.3442 58° Northeast 286 329 17,700 -429 Descending FlightAware ADS-B
Sat 10:41:37 AM 51.5423 0.3519 49° Northeast 280 322 17,700 -600 Level FlightAware ADS-B
Sat 10:41:42 AM 51.5469 0.3592 45° Northeast 275 316 17,600 -600 Descending FlightAware ADS-B
Sat 10:41:47 AM 51.5511 0.3649 40° Northeast 271 312 17,600 -462 Level FlightAware ADS-B
Sat 10:41:55 AM 51.5595 0.3739 34° Northeast 264 304 17,500 -353 Descending FlightAware ADS-B
Sat 10:42:04 AM 51.5697 0.3812 24° Northeast 255 293 17,500 -300 Level FlightAware ADS-B
Sat 10:42:15 AM 51.5818 0.3861 14° North 249 287 17,400 -800 Descending FlightAware ADS-B
Sat 10:42:19 AM 51.5859 0.3869 North 247 284 17,300 -667 Descending FlightAware ADS-B
Sat 10:42:24 AM 51.5919 0.3873 North 243 280 17,300 -429 Level FlightAware ADS-B
Sat 10:42:33 AM 51.6013 0.3860 355° North 239 275 17,200 -400 Descending FlightAware ADS-B
Sat 10:42:39 AM 51.6084 0.3833 347° North 237 273 17,200 -400 Level FlightAware ADS-B
Sat 10:42:48 AM 51.6170 0.3780 339° North 237 273 17,100 -667 Descending FlightAware ADS-B
Sat 10:42:57 AM 51.6259 0.3697 330° Northwest 239 275 17,000 -429 Descending FlightAware ADS-B
Sat 10:43:02 AM 51.6303 0.3643 322° Northwest 241 277 17,000 -400 Level FlightAware ADS-B
Sat 10:43:12 AM 51.6381 0.3519 315° West 243 280 16,900 -706 Descending FlightAware ADS-B
Sat 10:43:19 AM 51.6427 0.3420 307° West 247 284 16,800 -429 Descending FlightAware ADS-B
Sat 10:43:26 AM 51.6468 0.3304 300° West 251 289 16,800 -500 Level FlightAware ADS-B
Sat 10:43:31 AM 51.6492 0.3211 292° West 255 293 16,700 -750 Descending FlightAware ADS-B
Sat 10:43:42 AM 51.6522 0.3018 284° West 262 302 16,600 -333 Descending FlightAware ADS-B
Sat 10:43:49 AM 51.6529 0.2869 274° West 270 311 16,600 -545 Level FlightAware ADS-B
Sat 10:43:53 AM 51.6527 0.2781 268° West 273 314 16,500 -667 Descending FlightAware ADS-B
Sat 10:43:58 AM 51.6520 0.2695 263° West 276 318 16,500 -375 Level FlightAware ADS-B
Sat 10:44:09 AM 51.6505 0.2476 264° West 270 311 16,400 -400 Descending FlightAware ADS-B
Sat 10:44:13 AM 51.6504 0.2394 269° West 262 302 16,400 -353 Level FlightAware ADS-B
Sat 10:44:26 AM 51.6502 0.2144 269° West 261 300 16,300 -698 Descending FlightAware ADS-B
Sat 10:44:56 AM 51.6472 0.1561 265° West 261 300 15,900 -833 Descending FlightAware ADS-B
Sat 10:45:02 AM 51.6460 0.1433 261° West 263 303 15,800 -600 Descending FlightAware ADS-B
Sat 10:45:06 AM 51.6449 0.1374 253° West 269 310 15,800 -1,200 Level FlightAware ADS-B
Sat 10:45:12 AM 51.6414 0.1247 246° West 277 319 15,600 -1,500 Descending FlightAware ADS-B
Sat 10:45:18 AM 51.6373 0.1143 237° Southwest 283 326 15,500 -857 Descending FlightAware ADS-B
Sat 10:45:26 AM 51.6307 0.1012 231° Southwest 286 329 15,400 -706 Descending FlightAware ADS-B
Sat 10:45:35 AM 51.6227 0.0891 223° Southwest 289 333 15,300 -857 Descending FlightAware ADS-B
Sat 10:45:40 AM 51.6167 0.0819 217° Southwest 293 337 15,200 -1,714 Descending FlightAware ADS-B
Sat 10:45:49 AM 51.6062 0.0730 208° Southwest 302 348 14,900 -2,000 Descending FlightAware ADS-B
Sat 10:45:52 AM 51.6016 0.0703 200° South 305 351 14,800 -1,333 Descending FlightAware ADS-B
Sat 10:45:58 AM 51.5934 0.0672 193° South 310 357 14,700 -1,500 Descending FlightAware ADS-B
Sat 10:46:04 AM 51.5856 0.0658 186° South 313 360 14,500 -1,636 Descending FlightAware ADS-B
Sat 10:46:09 AM 51.5773 0.0661 178° South 314 361 14,400 -1,800 Descending FlightAware ADS-B
Sat 10:46:14 AM 51.5706 0.0677 172° South 315 362 14,200 -1,500 Descending FlightAware ADS-B
Sat 10:46:25 AM 51.5557 0.0764 160° South 312 359 14,000 -1,200 Descending FlightAware ADS-B
Sat 10:46:29 AM 51.5504 0.0814 150° Southeast 306 352 13,900 -1,333 Descending FlightAware ADS-B
Sat 10:46:34 AM 51.5453 0.0875 143° Southeast 303 349 13,800 -1,333 Descending FlightAware ADS-B
Sat 10:46:38 AM 51.5410 0.0939 137° Southeast 299 344 13,700 -1,500 Descending FlightAware ADS-B
Sat 10:46:58 AM 51.5269 0.1307 122° Southeast 286 329 13,200 -1,440 Descending FlightAware ADS-B
Sat 10:47:03 AM 51.5251 0.1408 106° East 283 326 13,100 -1,714 Descending FlightAware ADS-B
Sat 10:47:19 AM 51.5240 0.1725 93° East 277 319 12,600 -1,935 Descending FlightAware ADS-B
Sat 10:47:34 AM 51.5268 0.2029 82° East 273 314 12,100 -2,000 Descending FlightAware ADS-B
Sat 10:47:43 AM 51.5277 0.2205 85° East 274 315 11,800 -2,000 Descending FlightAware ADS-B
Sat 10:47:46 AM 51.5284 0.2277 81° East 275 316 11,700 -1,333 Descending FlightAware ADS-B
Sat 10:47:52 AM 51.5303 0.2389 75° East 274 315 11,600 -5,478 Descending FlightAware ADS-B
Sat 10:48:09 AM 51.5371 0.2724 75° East 256 295 9,600 -938 Descending FlightAware UK
Sat 10:48:24 AM 51.5431 0.3015 75° East 280 322 11,100 2,786 Climbing FlightAware ADS-B
Sat 10:48:37 AM 51.5490 0.3267 69° East 280 322 10,900 -571 Descending FlightAware ADS-B
Sat 10:48:45 AM 51.5544 0.3404 58° Northeast 275 316 10,900 -462 Level FlightAware ADS-B
Sat 10:48:50 AM 51.5586 0.3476 47° Northeast 269 310 10,800 -500 Descending FlightAware ADS-B
Sat 10:48:57 AM 51.5650 0.3551 36° Northeast 261 300 10,800 -462 Level FlightAware ADS-B
Sat 10:49:03 AM 51.5721 0.3601 24° Northeast 252 290 10,700 -600 Descending FlightAware ADS-B
Sat 10:49:07 AM 51.5766 0.3619 14° North 249 287 10,700  Level FlightAware ADS-B
Sat 10:49:12 AM 51.5820 0.3630 North 246 283 10,700 -400 Level FlightAware ADS-B
Sat 10:49:37 AM 51.6103 0.3649 North 246 283 10,500 -581 Descending FlightAware ADS-B
Sat 10:49:43 AM 51.6164 0.3636 353° North 244 281 10,400 -923 Descending FlightAware ADS-B
Sat 10:49:50 AM 51.6244 0.3590 340° North 242 278 10,300 -500 Descending FlightAware ADS-B
Sat 10:49:55 AM 51.6289 0.3545 328° Northwest 239 275 10,300 -600 Level FlightAware ADS-B
Sat 10:50:00 AM 51.6329 0.3487 318° Northwest 238 274 10,200 -316 Descending FlightAware ADS-B
Sat 10:50:14 AM 51.6421 0.3293 307° West 236 272 10,200 -261 Level FlightAware ADS-B
Sat 10:50:23 AM 51.6466 0.3148 297° West 235 270 10,100 -706 Descending FlightAware ADS-B
Sat 10:50:31 AM 51.6488 0.3020 286° West 235 270 10,000 -706 Descending FlightAware ADS-B
Sat 10:50:40 AM 51.6507 0.2859 281° West 234 269 9,900 -462 Descending FlightAware ADS-B
Sat 10:50:57 AM 51.6519 0.2560 274° West 235 270 9,800 -522 Descending FlightAware ADS-B
Sat 10:51:03 AM 51.6520 0.2455 271° West 236 272 9,700 -600 Descending FlightAware ADS-B
Sat 10:51:07 AM 51.6519 0.2388 269° West 237 273 9,700 -316 Level FlightAware ADS-B
Sat 10:51:22 AM 51.6505 0.2120 265° West 239 275 9,600 -429 Descending FlightAware ADS-B
Sat 10:51:35 AM 51.6493 0.1885 265° West 239 275 9,500 -621 Descending FlightAware ADS-B
Sat 10:51:51 AM 51.6479 0.1615 265° West 239 275 9,300 -600 Descending FlightAware ADS-B
Sat 10:52:05 AM 51.6466 0.1364 265° West 239 275 9,200 -353 Descending FlightAware ADS-B
Sat 10:52:08 AM 51.6461 0.1311 261° West 241 277 9,200  Level FlightAware ADS-B
Sat 10:52:12 AM 51.6451 0.1245 256° West 242 278 9,200 -667 Level FlightAware ADS-B
Sat 10:52:17 AM 51.6429 0.1156 248° West 245 282 9,100 -667 Descending FlightAware ADS-B
Sat 10:52:21 AM 51.6404 0.1089 239° Southwest 249 287 9,100 -667 Level FlightAware ADS-B
Sat 10:52:26 AM 51.6369 0.1022 230° Southwest 250 288 9,000 -545 Descending FlightAware ADS-B
Sat 10:52:32 AM 51.6319 0.0954 220° Southwest 252 290 9,000  Level FlightAware ADS-B
Sat 10:52:36 AM 51.6281 0.0917 211° Southwest 254 292 9,000 -857 Level FlightAware ADS-B
Sat 10:52:39 AM 51.6238 0.0887 203° Southwest 256 295 8,900 -857 Descending FlightAware ADS-B
Sat 10:52:43 AM 51.6203 0.0871 196° South 257 296 8,900 -667 Level FlightAware ADS-B
Sat 10:52:48 AM 51.6133 0.0854 188° South 258 297 8,800 -667 Descending FlightAware ADS-B
Sat 10:52:52 AM 51.6087 0.0857 178° South 260 299 8,800  Level FlightAware ADS-B
Sat 10:52:56 AM 51.6046 0.0866 172° South 259 298 8,800 -500 Level FlightAware ADS-B
Sat 10:53:04 AM 51.5955 0.0917 161° South 260 299 8,700 -500 Descending FlightAware ADS-B
Sat 10:53:08 AM 51.5911 0.0958 150° Southeast 262 302 8,700  Level FlightAware ADS-B
Sat 10:53:14 AM 51.5861 0.1026 140° Southeast 264 304 8,700 -667 Level FlightAware ADS-B
Sat 10:53:17 AM 51.5831 0.1080 132° Southeast 264 304 8,600 -857 Descending FlightAware ADS-B
Sat 10:53:21 AM 51.5805 0.1141 124° Southeast 263 303 8,600 -500 Level FlightAware ADS-B
Sat 10:53:29 AM 51.5767 0.1286 113° Southeast 263 303 8,500 -462 Descending FlightAware ADS-B
Sat 10:53:34 AM 51.5756 0.1381 101° East 263 303 8,500 -545 Level FlightAware ADS-B
Sat 10:53:40 AM 51.5753 0.1489 93° East 261 300 8,400 -522 Descending FlightAware ADS-B
Sat 10:53:57 AM 51.5771 0.1819 85° East 261 300 8,300 -286 Descending FlightAware ADS-B
Sat 10:54:01 AM 51.5782 0.1894 77° East 262 302 8,300 -857 Level FlightAware ADS-B
Sat 10:54:04 AM 51.5796 0.1952 69° East 262 302 8,200 -750 Descending FlightAware ADS-B
Sat 10:54:09 AM 51.5821 0.2034 64° Northeast 261 300 8,200 -462 Level FlightAware ADS-B
Sat 10:54:17 AM 51.5879 0.2151 51° Northeast 258 297 8,100 -500 Descending FlightAware ADS-B
Sat 10:54:21 AM 51.5916 0.2200 40° Northeast 256 295 8,100  Level FlightAware ADS-B
Sat 10:54:24 AM 51.5950 0.2236 33° Northeast 254 292 8,100 -1,000 Level FlightAware ADS-B
Sat 10:54:27 AM 51.5985 0.2264 27° Northeast 254 292 8,000 -857 Descending FlightAware ADS-B
Sat 10:54:31 AM 51.6029 0.2289 19° North 250 288 8,000  Level FlightAware ADS-B
Sat 10:54:43 AM 51.6157 0.2300 North 244 281 8,000  Level FlightAware ADS-B
Sat 10:54:50 AM 51.6232 0.2267 344° North 239 275 8,000  Level FlightAware ADS-B
Sat 10:54:56 AM 51.6289 0.2216 331° Northwest 237 273 8,000  Level FlightAware ADS-B
Sat 10:55:01 AM 51.6338 0.2159 324° Northwest 235 270 8,000  Level FlightAware ADS-B
Sat 10:55:07 AM 51.6387 0.2097 322° Northwest 235 270 8,000  Level FlightAware ADS-B
Sat 10:55:11 AM 51.6420 0.2050 319° Northwest 234 269 8,000  Level FlightAware ADS-B
Sat 10:55:15 AM 51.6445 0.2007 313° West 234 269 8,000  Level FlightAware ADS-B
Sat 10:55:18 AM 51.6469 0.1958 308° West 234 269 8,000  Level FlightAware ADS-B
Sat 10:55:22 AM 51.6491 0.1897 300° West 234 269 8,000  Level FlightAware ADS-B
Sat 10:55:27 AM 51.6509 0.1828 293° West 234 269 8,000  Level FlightAware ADS-B
Sat 10:55:40 AM 51.6552 0.1616 288° West 233 268 8,000  Level FlightAware ADS-B
Sat 10:55:44 AM 51.6560 0.1550 281° West 233 268 8,000  Level FlightAware ADS-B
Sat 10:55:52 AM 51.6569 0.1402 276° West 236 272 8,000  Level FlightAware ADS-B
Sat 10:56:07 AM 51.6575 0.1130 272° West 237 273 8,000  Level FlightAware ADS-B
Sat 10:56:24 AM 51.6578 0.0842 271° West 239 275 8,000 -188 Level FlightAware ADS-B
Sat 10:56:39 AM 51.6580 0.0566 271° West 239 275 7,900 -563 Descending FlightAware ADS-B
Sat 10:56:56 AM 51.6582 0.0266 271° West 238 274 7,700 -545 Descending FlightAware ADS-B
Sat 10:57:12 AM 51.6584 -0.0009 271° West 238 274 7,600 -387 Descending FlightAware ADS-B
Sat 10:57:27 AM 51.6588 -0.0289 271° West 241 277 7,500 -414 Descending FlightAware ADS-B
Sat 10:57:41 AM 51.6591 -0.0523 271° West 241 277 7,400 -545 Descending FlightAware ADS-B
Sat 10:57:49 AM 51.6591 -0.0672 270° West 241 277 7,300 -545 Descending FlightAware ADS-B
Sat 10:57:52 AM 51.6588 -0.0735 266° West 242 278 7,300 -667 Level FlightAware ADS-B
Sat 10:57:58 AM 51.6574 -0.0837 257° West 244 281 7,200 -1,091 Descending FlightAware ADS-B
Sat 10:58:03 AM 51.6555 -0.0913 248° West 246 283 7,100 -750 Descending FlightAware ADS-B
Sat 10:58:06 AM 51.6538 -0.0964 241° Southwest 247 284 7,100 -857 Level FlightAware ADS-B
Sat 10:58:10 AM 51.6507 -0.1030 233° Southwest 247 284 7,000 -1,500 Descending FlightAware ADS-B
Sat 10:58:14 AM 51.6474 -0.1083 225° Southwest 248 285 6,900 -750 Descending FlightAware ADS-B
Sat 10:58:18 AM 51.6443 -0.1121 217° Southwest 248 285 6,900 -857 Level FlightAware ADS-B
Sat 10:58:21 AM 51.6410 -0.1151 210° Southwest 249 287 6,800 -1,714 Descending FlightAware ADS-B
Sat 10:58:25 AM 51.6371 -0.1179 204° Southwest 248 285 6,700 -750 Descending FlightAware ADS-B
Sat 10:58:29 AM 51.6326 -0.1199 196° South 248 285 6,700 -857 Level FlightAware ADS-B
Sat 10:58:32 AM 51.6289 -0.1208 188° South 249 287 6,600 -857 Descending FlightAware ADS-B
Sat 10:58:36 AM 51.6248 -0.1208 181° South 249 287 6,600 -667 Level FlightAware ADS-B
Sat 10:58:41 AM 51.6189 -0.1196 172° South 249 287 6,500 -667 Descending FlightAware ADS-B
Sat 10:58:45 AM 51.6144 -0.1173 163° South 252 290 6,500  Level FlightAware ADS-B
Sat 10:58:49 AM 51.6108 -0.1147 156° South 252 290 6,500 -750 Level FlightAware ADS-B
Sat 10:58:53 AM 51.6059 -0.1100 149° Southeast 255 293 6,400 -545 Descending FlightAware ADS-B
Sat 10:59:00 AM 51.5996 -0.1026 144° Southeast 254 292 6,400 -500 Level FlightAware ADS-B
Sat 10:59:17 AM 51.5842 -0.0825 141° Southeast 252 290 6,200 -857 Descending FlightAware ADS-B
Sat 10:59:35 AM 51.5673 -0.0632 145° Southeast 249 287 5,900 -1,043 Descending FlightAware ADS-B
Sat 10:59:40 AM 51.5621 -0.0601 160° South 245 282 5,800 -1,000 Descending FlightAware ADS-B
Sat 10:59:47 AM 51.5540 -0.0573 168° South 242 278 5,700 -1,000 Descending FlightAware ADS-B
Sat 11:00:04 AM 51.5361 -0.0536 173° South 233 268 5,400 -909 Descending FlightAware ADS-B
Sat 11:00:20 AM 51.5196 -0.0500 172° South 223 257 5,200 -774 Descending FlightAware ADS-B
Sat 11:00:35 AM 51.5044 -0.0468 173° South 214 246 5,000 -643 Descending FlightAware ADS-B
Sat 11:00:48 AM 51.4918 -0.0439 172° South 206 237 4,900 -545 Descending FlightAware ADS-B
Sat 11:00:57 AM 51.4831 -0.0436 179° South 198 228 4,800 -462 Descending FlightAware ADS-B
Sat 11:01:01 AM 51.4796 -0.0449 193° South 194 223 4,800 -857 Level FlightAware ADS-B
Sat 11:01:04 AM 51.4773 -0.0465 203° Southwest 191 220 4,700 -857 Descending FlightAware ADS-B
Sat 11:01:08 AM 51.4743 -0.0492 210° Southwest 184 212 4,700  Level FlightAware ADS-B
Sat 11:01:12 AM 51.4720 -0.0529 225° Southwest 181 208 4,700 -667 Level FlightAware ADS-B
Sat 11:01:17 AM 51.4701 -0.0578 238° Southwest 176 203 4,600 -857 Descending FlightAware ADS-B
Sat 11:01:26 AM 51.4690 -0.0689 261° West 171 197 4,500 -429 Descending FlightAware ADS-B
Sat 11:01:31 AM 51.4702 -0.0754 286° West 177 204 4,500  Level FlightAware ADS-B
Sat 11:01:34 AM 51.4714 -0.0790 298° West 183 211 4,500 -1,000 Level FlightAware ADS-B
Sat 11:01:37 AM 51.4729 -0.0829 301° West 184 212 4,400 -857 Descending FlightAware ADS-B
Sat 11:01:41 AM 51.4746 -0.0875 301° West 182 209 4,400 -667 Level FlightAware ADS-B
Sat 11:01:46 AM 51.4761 -0.0934 292° West 181 208 4,300 -1,333 Descending FlightAware ADS-B
Sat 11:01:50 AM 51.4768 -0.0979 284° West 183 211 4,200 -1,000 Descending FlightAware ADS-B
Sat 11:01:58 AM 51.4776 -0.1093 276° West 180 207 4,100 -1,200 Descending FlightAware ADS-B
Sat 11:02:05 AM 51.4780 -0.1186 274° West 176 203 3,900 -1,043 Descending FlightAware ADS-B
Sat 11:02:21 AM 51.4781 -0.1391 270° West 175 201 3,700 -828 Descending FlightAware ADS-B
Sat 11:02:34 AM 51.4781 -0.1551 270° West 173 199 3,500 -955 Descending FlightAware ADS-B
Sat 11:03:05 AM 51.4781 -0.1944 270° West 171 197 3,000 -1,021 Descending FlightAware ADS-B
Sat 11:03:21 AM 51.4781 -0.2131 270° West 157 181 2,700 -3,706 Descending FlightAware ADS-B
Sat 11:03:39 AM 51.4781 -0.2335 270° West 168 193 900 -2,400 Descending FlightAware UK
Sat 11:04:21 AM 51.4780 -0.2796 270° West 164 189 300 828 Descending FlightAware UK
Sat 11:04:37 AM 51.4780 -0.2920 270° West 146 168 1,700 1,435 Climbing FlightAware ADS-B
Sat 11:05:07 AM 51.4780 -0.3230 270° West 142 163 1,400 -700 Descending FlightAware ADS-B
Sat 11:05:37 AM 51.4780 -0.3540 270° West 134 154 1,000 -873 Descending FlightAware ADS-B
Sat 11:06:02 AM 51.4780 -0.3820 270° West 134 154 600 -800 Descending FlightAware ADS-B
Sat 11:06:22 AM 51.4780 -0.4000 270° West 136 157 400 -667 Descending FlightAware ADS-B
Sat 11:06:47 AM 51.4780 -0.4240 270° West 136 157 100 -360 Descending FlightAware ADS-B
Sat 11:07:12 AM 51.4780 -0.4490 270° West 136 157 100  Level FlightAware ADS-B

Login

Don't have an account? Register now (free) for customized features, flight alerts, and more!